Estación Meteorológica

Seleccionar fecha


Semana del 08-11-2017 al 15-11-2017

Fecha Temperaturas Humedad relativa Presión atmosférica Precipitaciones Dirección viento Velocidad del viento Velocidad de racha Iluminancia
Wed 08, 12:05 AM8.8 ºC77.7 %960.2 hPa0 l/m2 180º S 1.1 m/s1.2 m/s2.3 Lux
Wed 08, 12:15 AM9 ºC79.2 %960.3 hPa0 l/m2 180º S 1.1 m/s1.2 m/s2.3 Lux
Wed 08, 12:25 AM8.6 ºC77.5 %960.3 hPa0 l/m2 157,5º SSE 1.3 m/s1.2 m/s2.3 Lux
Wed 08, 12:35 AM8.5 ºC77.5 %960.1 hPa0 l/m2 157,5º SSE 0.9 m/s1.2 m/s2.3 Lux
Wed 08, 12:45 AM8.4 ºC77.8 %960 hPa0 l/m2 112.5º ESE 1.7 m/s1.8 m/s2.3 Lux
Wed 08, 12:55 AM8.5 ºC75.1 %960 hPa0 l/m2 180º S 0.9 m/s1.2 m/s2.3 Lux
Wed 08, 01:05 AM8.2 ºC76.8 %960.1 hPa0 l/m2 180º S 0.2 m/s0.6 m/s2.3 Lux
Wed 08, 01:15 AM8.7 ºC77.9 %960 hPa0 l/m2 180º S 0 m/s0 m/s2.3 Lux
Wed 08, 01:25 AM8.7 ºC78.3 %960 hPa0 l/m2 180º S 0.3 m/s1.2 m/s2.3 Lux
Wed 08, 01:35 AM9.4 ºC81.2 %960 hPa0 l/m2 180º S 1.4 m/s1.2 m/s2.3 Lux
Wed 08, 01:45 AM9.3 ºC73.6 %959.9 hPa0 l/m2 180º S 1.7 m/s1.8 m/s2.3 Lux
Wed 08, 01:55 AM9.4 ºC76 %959.8 hPa0 l/m2 180º S 1.4 m/s1.2 m/s2.3 Lux
Wed 08, 02:05 AM8.9 ºC81.6 %959.8 hPa0 l/m2 180º S 1.7 m/s1.8 m/s2.3 Lux
Wed 08, 02:15 AM9 ºC77 %959.9 hPa0 l/m2 180º S 1.4 m/s1.2 m/s2.3 Lux
Wed 08, 02:25 AM9.6 ºC78.4 %959.9 hPa0 l/m2 180º S 1.6 m/s1.8 m/s2.3 Lux
Wed 08, 02:35 AM9.6 ºC75.4 %959.9 hPa0 l/m2 0º N 1.4 m/s1.2 m/s2.3 Lux
Wed 08, 02:45 AM8 ºC77.3 %959.8 hPa0 l/m2 180º S 0.9 m/s1.2 m/s2.3 Lux
Wed 08, 02:55 AM8.8 ºC75.4 %959.8 hPa0 l/m2 180º S 1.6 m/s1.8 m/s2.3 Lux
Wed 08, 03:05 AM8.8 ºC75.4 %960 hPa0 l/m2 0º N 0.4 m/s0.6 m/s2.3 Lux
Wed 08, 03:15 AM7.7 ºC77.3 %959.9 hPa0 l/m2 315º NO 0 m/s0 m/s2.3 Lux
Wed 08, 03:25 AM7 ºC77.3 %959.9 hPa0 l/m2 247,5º OSO 0 m/s0 m/s2.3 Lux
Wed 08, 03:35 AM6.8 ºC79.9 %960 hPa0 l/m2 90º E 0 m/s0 m/s2.3 Lux
Wed 08, 03:45 AM7.7 ºC80 %960 hPa0 l/m2 180º S 0.2 m/s0.6 m/s2.3 Lux
Wed 08, 03:55 AM7.2 ºC80.8 %959.7 hPa0 l/m2 180º S 0.3 m/s1.2 m/s2.3 Lux
Wed 08, 04:05 AM7.3 ºC81.6 %959.7 hPa0 l/m2 157,5º SSE 1.4 m/s1.2 m/s2.3 Lux
Wed 08, 04:15 AM7.4 ºC80.4 %959.6 hPa0 l/m2 180º S 1.7 m/s1.8 m/s2.3 Lux
Wed 08, 04:25 AM8.5 ºC80.3 %959.6 hPa0 l/m2 180º S 2 m/s1.8 m/s2.3 Lux
Wed 08, 04:35 AM8.8 ºC78.9 %959.6 hPa0 l/m2 180º S 2 m/s1.8 m/s2.3 Lux
Wed 08, 04:45 AM8.7 ºC74.5 %959.6 hPa0 l/m2 0º N 1.7 m/s1.8 m/s2.3 Lux
Wed 08, 04:55 AM7.5 ºC77.4 %959.5 hPa0 l/m2 180º S 1.5 m/s1.8 m/s2.3 Lux
Wed 08, 05:05 AM8.6 ºC77.1 %959.5 hPa0 l/m2 180º S 1.4 m/s1.8 m/s2.3 Lux
Wed 08, 05:15 AM8.8 ºC74 %959.4 hPa0 l/m2 0º N 1.3 m/s1.8 m/s2.3 Lux
Wed 08, 05:25 AM9 ºC75.7 %959.5 hPa0 l/m2 180º S 0.7 m/s1.2 m/s2.3 Lux
Wed 08, 05:35 AM8.2 ºC71.4 %959.5 hPa0 l/m2 247,5º OSO 1.1 m/s1.2 m/s2.3 Lux
Wed 08, 05:45 AM8.8 ºC72.9 %959.7 hPa0 l/m2 0º N 0.1 m/s0.6 m/s2.3 Lux
Wed 08, 05:55 AM5.8 ºC81.2 %959.8 hPa0 l/m2 247,5º OSO 0 m/s0 m/s2.3 Lux
Wed 08, 06:05 AM6.9 ºC81.7 %959.7 hPa0 l/m2 180º S 0.8 m/s1.2 m/s2.3 Lux
Wed 08, 06:15 AM7.8 ºC76.2 %959.8 hPa0 l/m2 157,5º SSE 1.6 m/s1.8 m/s2.3 Lux
Wed 08, 06:25 AM8.5 ºC74.1 %959.7 hPa0 l/m2 180º S 1.5 m/s1.2 m/s2.3 Lux
Wed 08, 06:35 AM7 ºC75.2 %959.9 hPa0 l/m2 0º N 0.5 m/s0.6 m/s2.3 Lux
Wed 08, 06:45 AM6.2 ºC76.5 %960 hPa0 l/m2 0º N 0 m/s0 m/s2.3 Lux
Wed 08, 06:55 AM6 ºC78 %960 hPa0 l/m2 180º S 0 m/s0 m/s2.3 Lux
Wed 08, 07:05 AM6.8 ºC79.2 %960 hPa0 l/m2 157,5º SSE 0 m/s0 m/s2.3 Lux
Wed 08, 07:15 AM6.8 ºC84.6 %960.2 hPa0 l/m2 180º S 1.3 m/s1.2 m/s2.4 Lux
Wed 08, 07:25 AM7 ºC75.3 %960.1 hPa0 l/m2 180º S 1.5 m/s1.8 m/s3 Lux
Wed 08, 07:35 AM6.7 ºC76.6 %960.2 hPa0 l/m2 180º S 1.7 m/s1.8 m/s8.2 Lux
Wed 08, 07:45 AM7.9 ºC75.8 %960.2 hPa0 l/m2 180º S 2 m/s1.8 m/s34 Lux
Wed 08, 07:55 AM7.2 ºC75.2 %960.3 hPa0 l/m2 225º SO 2.1 m/s2.4 m/s100.3 Lux
Wed 08, 08:05 AM8.1 ºC77.3 %960.4 hPa0 l/m2 180º S 1.7 m/s1.8 m/s208.2 Lux
Wed 08, 08:15 AM6.8 ºC77.6 %960.2 hPa0 l/m2 180º S 1.1 m/s1.2 m/s587.4 Lux
Wed 08, 08:25 AM7.9 ºC73.5 %959.5 hPa0 l/m2 180º S 1 m/s1.2 m/s2554.9 Lux
Wed 08, 08:35 AM9.1 ºC68.4 %959.5 hPa0 l/m2 180º S 1.9 m/s1.8 m/s3178.1 Lux
Wed 08, 08:45 AM9 ºC67.2 %959.4 hPa0 l/m2 180º S 2.1 m/s1.8 m/s4047.8 Lux
Wed 08, 08:55 AM9.5 ºC67 %959.5 hPa0 l/m2 180º S 1.4 m/s1.8 m/s4945.6 Lux
Wed 08, 09:05 AM11 ºC69.7 %959.4 hPa0 l/m2 247,5º OSO 1.7 m/s1.8 m/s5309.4 Lux
Wed 08, 09:15 AM11 ºC68.6 %959.6 hPa0 l/m2 90º E 1.3 m/s1.2 m/s6162.9 Lux
Wed 08, 09:25 AM10.7 ºC68.9 %959.7 hPa0 l/m2 0º N 0.3 m/s1.2 m/s6665.8 Lux
Wed 08, 09:35 AM9.6 ºC78.1 %959.7 hPa0 l/m2 0º N 0.1 m/s0 m/s6665.8 Lux
Wed 08, 09:45 AM11.2 ºC80.4 %959.8 hPa0 l/m2 0º N 0 m/s0 m/s7230.4 Lux
Wed 08, 09:55 AM11.3 ºC78.6 %959.7 hPa0 l/m2 225º SO 0 m/s0 m/s8587.7 Lux
Wed 08, 10:05 AM12.3 ºC75.1 %959.9 hPa0 l/m2 0º N 0 m/s0 m/s8587.7 Lux
Wed 08, 10:15 AM11.6 ºC75.7 %959.9 hPa0 l/m2 0º N 0 m/s0 m/s8587.7 Lux
Wed 08, 10:25 AM9.5 ºC71.7 %960 hPa0 l/m2 0º N 0 m/s0 m/s8587.7 Lux
Wed 08, 10:35 AM10.5 ºC74.9 %960.2 hPa0 l/m2 0º N 0 m/s0 m/s8587.7 Lux
Wed 08, 10:45 AM11.9 ºC70.8 %960.3 hPa0 l/m2 0º N 0 m/s0 m/s8587.7 Lux
Wed 08, 10:55 AM12.4 ºC71.9 %960.5 hPa0 l/m2 0º N 0 m/s0 m/s7866.8 Lux
Wed 08, 11:05 AM13.8 ºC67.3 %960.5 hPa0 l/m2 0º N 0 m/s0 m/s6162.9 Lux
Wed 08, 11:15 AM12.3 ºC67.3 %960.5 hPa0 l/m2 0º N 0 m/s0 m/s3800.8 Lux
Wed 08, 11:25 AM13 ºC67.8 %960.5 hPa0 l/m2 0º N 0 m/s0 m/s3003.2 Lux
Wed 08, 11:35 AM12.2 ºC66.9 %960.6 hPa0 l/m2 0º N 0.9 m/s1.8 m/s2841.9 Lux
Wed 08, 11:45 AM13.3 ºC66.6 %960.8 hPa0 l/m2 22,5º NNE 0.4 m/s0.6 m/s2554.9 Lux
Wed 08, 11:55 AM12.7 ºC66.7 %961 hPa0 l/m2 45º NE 0.4 m/s0.6 m/s2426.9 Lux
Wed 08, 12:05 PM12.7 ºC70.7 %961 hPa0 l/m2 0º N 0.2 m/s0.6 m/s2197.4 Lux
Wed 08, 12:15 PM13.7 ºC70.7 %960.9 hPa0 l/m2 0º N 0 m/s0 m/s2308 Lux
Wed 08, 12:25 PM14.3 ºC73.1 %960.8 hPa0 l/m2 315º NO 0.1 m/s0 m/s2692.9 Lux
Wed 08, 12:35 PM14.7 ºC69.4 %960.7 hPa0 l/m2 0º N 0.3 m/s1.2 m/s2841.9 Lux
Wed 08, 12:45 PM15.2 ºC69.1 %960.6 hPa0 l/m2 67,5º ENE 0.4 m/s0.6 m/s3178.1 Lux
Wed 08, 12:55 PM15.6 ºC60.3 %960.5 hPa0 l/m2 0º N 0.1 m/s0 m/s3575 Lux
Wed 08, 01:05 PM15.6 ºC52.5 %960.3 hPa0 l/m2 315º NO 0.1 m/s0 m/s3800.8 Lux
Wed 08, 01:15 PM16.9 ºC52.5 %960.1 hPa0 l/m2 0º N 0.3 m/s1.2 m/s3800.8 Lux
Wed 08, 01:25 PM16.9 ºC51 %960.1 hPa0 l/m2 0º N 0.2 m/s0 m/s4047.8 Lux
Wed 08, 01:35 PM17.1 ºC58.9 %959.9 hPa0 l/m2 0º N 0 m/s0 m/s4318.8 Lux
Wed 08, 01:45 PM17 ºC59 %959.8 hPa0 l/m2 135º SE 0.3 m/s0.6 m/s4616.8 Lux
Wed 08, 01:55 PM16.7 ºC54.4 %959.7 hPa0 l/m2 0º N 1 m/s1.2 m/s4945.6 Lux
Wed 08, 02:05 PM17.9 ºC46.3 %959.6 hPa0 l/m2 0º N 1.1 m/s1.8 m/s5309.4 Lux
Wed 08, 02:15 PM18 ºC47.4 %959.5 hPa0 l/m2 315º NO 1 m/s1.2 m/s6162.9 Lux
Wed 08, 02:25 PM17.8 ºC47.4 %959.4 hPa0 l/m2 0º N 0.8 m/s1.8 m/s6665.8 Lux
Wed 08, 02:35 PM17.7 ºC48.4 %959.4 hPa0 l/m2 315º NO 0.7 m/s1.2 m/s6665.8 Lux
Wed 08, 02:45 PM18.8 ºC47.8 %959.3 hPa0 l/m2 0º N 0.7 m/s1.2 m/s7230.4 Lux
Wed 08, 02:55 PM19 ºC44.8 %959.2 hPa0 l/m2 0º N 0.1 m/s0 m/s7230.4 Lux
Wed 08, 03:05 PM20.4 ºC44.6 %959.2 hPa0 l/m2 315º NO 0.5 m/s1.2 m/s7230.4 Lux
Wed 08, 03:15 PM19.6 ºC42.2 %959.2 hPa0 l/m2 0º N 0.2 m/s0.6 m/s7866.8 Lux
Wed 08, 03:25 PM19.3 ºC42.7 %959 hPa0 l/m2 0º N 0.6 m/s1.2 m/s7866.8 Lux
Wed 08, 03:35 PM18.5 ºC42.7 %959 hPa0 l/m2 0º N 0.4 m/s1.2 m/s8587.7 Lux
Wed 08, 03:45 PM19.3 ºC44 %959 hPa0 l/m2 315º NO 0.2 m/s0.6 m/s7866.8 Lux
Wed 08, 03:55 PM18.2 ºC46.9 %958.9 hPa0 l/m2 135º SE 0.2 m/s0.6 m/s7866.8 Lux
Wed 08, 04:05 PM19.1 ºC44.8 %959 hPa0 l/m2 315º NO 0.5 m/s1.2 m/s7230.4 Lux
Wed 08, 04:15 PM19.3 ºC54.2 %958.9 hPa0 l/m2 0º N 0.6 m/s1.8 m/s6665.8 Lux
Wed 08, 04:25 PM18.7 ºC47.3 %959 hPa0 l/m2 315º NO 1.2 m/s1.8 m/s6162.9 Lux
Wed 08, 04:35 PM18 ºC47.3 %959.1 hPa0 l/m2 0º N 0.7 m/s1.2 m/s5713.1 Lux
Wed 08, 04:45 PM19.2 ºC49.6 %959.1 hPa0 l/m2 0º N 0.6 m/s1.8 m/s5309.4 Lux
Wed 08, 04:55 PM18 ºC50.5 %959.1 hPa0 l/m2 270º O 0.6 m/s1.2 m/s4945.6 Lux
Wed 08, 05:05 PM18.6 ºC44.1 %959.1 hPa0 l/m2 315º NO 1.7 m/s1.8 m/s4318.8 Lux
Wed 08, 05:15 PM18.5 ºC47.9 %959.1 hPa0 l/m2 0º N 1.6 m/s2.4 m/s3800.8 Lux
Wed 08, 05:25 PM16.9 ºC49.1 %959.3 hPa0 l/m2 0º N 2.3 m/s2.4 m/s2841.9 Lux
Wed 08, 05:35 PM17.7 ºC48.9 %959.5 hPa0 l/m2 0º N 2 m/s2.4 m/s2426.9 Lux
Wed 08, 05:45 PM17.3 ºC51.4 %959.4 hPa0 l/m2 0º N 1.7 m/s1.8 m/s1670.6 Lux
Wed 08, 05:55 PM16.9 ºC54.9 %959.9 hPa0 l/m2 0º N 0.6 m/s0.6 m/s396.1 Lux
Wed 08, 06:05 PM15.2 ºC54.9 %959.8 hPa0 l/m2 0º N 0.3 m/s0.6 m/s139.3 Lux
Wed 08, 06:15 PM15.7 ºC55.3 %960 hPa0 l/m2 0º N 0.4 m/s1.2 m/s50.8 Lux
Wed 08, 06:25 PM15.5 ºC56.6 %960 hPa0 l/m2 0º N 0.5 m/s0.6 m/s12 Lux
Wed 08, 06:35 PM14.7 ºC57.3 %959.9 hPa0 l/m2 315º NO 0.4 m/s0.6 m/s3.4 Lux
Wed 08, 06:45 PM15.3 ºC59 %960.1 hPa0 l/m2 0º N 0.3 m/s0.6 m/s2.5 Lux
Wed 08, 06:55 PM15.2 ºC59 %960.2 hPa0 l/m2 315º NO 0.2 m/s0.6 m/s2.4 Lux
Wed 08, 07:05 PM14.5 ºC61.8 %960.2 hPa0 l/m2 315º NO 0 m/s0 m/s2.4 Lux
Wed 08, 07:15 PM14.7 ºC65.4 %960.3 hPa0 l/m2 225º SO 0 m/s0 m/s2.3 Lux
Wed 08, 07:25 PM13.8 ºC65.4 %960.3 hPa0 l/m2 225º SO 0 m/s0 m/s2.4 Lux
Wed 08, 07:35 PM13.5 ºC66.2 %960.3 hPa0 l/m2 180º S 0 m/s0 m/s2.4 Lux
Wed 08, 07:45 PM12.3 ºC68 %960.4 hPa0 l/m2 90º E 0 m/s0 m/s2.4 Lux
Wed 08, 07:55 PM12.7 ºC68.5 %960.5 hPa0 l/m2 180º S 0 m/s0 m/s2.4 Lux
Wed 08, 08:05 PM12.7 ºC72.6 %960.5 hPa0 l/m2 180º S 0 m/s0 m/s2.4 Lux
Wed 08, 08:15 PM11.6 ºC72.6 %960.5 hPa0 l/m2 180º S 0 m/s0 m/s2.4 Lux
Wed 08, 08:25 PM12.2 ºC71.9 %960.4 hPa0 l/m2 180º S 0 m/s0 m/s2.4 Lux
Wed 08, 08:35 PM12.5 ºC72.7 %960.4 hPa0 l/m2 180º S 0 m/s0 m/s2.4 Lux
Wed 08, 08:45 PM11.3 ºC73.5 %960.4 hPa0 l/m2 180º S 0 m/s0 m/s2.4 Lux
Wed 08, 08:55 PM12.3 ºC74.4 %960.4 hPa0 l/m2 180º S 0 m/s0 m/s2.3 Lux
Wed 08, 09:05 PM11.1 ºC75.5 %960.4 hPa0 l/m2 180º S 0.5 m/s1.2 m/s2.4 Lux
Wed 08, 09:15 PM11.5 ºC73.7 %960.5 hPa0 l/m2 0º N 0.3 m/s1.2 m/s2.3 Lux
Wed 08, 09:25 PM11.3 ºC74 %960.6 hPa0 l/m2 180º S 0 m/s0 m/s2.3 Lux
Wed 08, 09:35 PM12.1 ºC75.1 %960.5 hPa0 l/m2 180º S 0 m/s0 m/s2.3 Lux
Wed 08, 09:45 PM11.9 ºC75.6 %960.5 hPa0 l/m2 180º S 0 m/s0 m/s2.3 Lux
Wed 08, 09:55 PM11.8 ºC76.3 %960.6 hPa0 l/m2 180º S 0.8 m/s1.2 m/s2.3 Lux
Wed 08, 10:05 PM12.5 ºC74.3 %960.6 hPa0 l/m2 180º S 1 m/s1.2 m/s2.3 Lux
Wed 08, 10:15 PM10.9 ºC75.7 %960.7 hPa0 l/m2 180º S 0.6 m/s1.2 m/s2.3 Lux
Wed 08, 10:25 PM11.5 ºC76.4 %960.7 hPa0 l/m2 180º S 0 m/s0 m/s2.3 Lux
Wed 08, 10:35 PM11.6 ºC76.5 %960.8 hPa0 l/m2 180º S 0 m/s0 m/s2.3 Lux
Wed 08, 10:45 PM10.9 ºC77.6 %960.8 hPa0 l/m2 180º S 0 m/s0 m/s2.3 Lux
Wed 08, 10:55 PM11.1 ºC78.2 %960.8 hPa0 l/m2 247,5º OSO 0 m/s0 m/s2.3 Lux
Wed 08, 11:05 PM10.9 ºC77.4 %960.7 hPa0 l/m2 180º S 0 m/s0 m/s2.3 Lux
Wed 08, 11:15 PM10.5 ºC79 %960.7 hPa0 l/m2 180º S 0 m/s0 m/s2.3 Lux
Wed 08, 11:25 PM10.4 ºC78.8 %960.7 hPa0 l/m2 180º S 0.1 m/s0.6 m/s2.3 Lux
Wed 08, 11:35 PM10.7 ºC79.6 %960.6 hPa0 l/m2 180º S 0 m/s0 m/s2.3 Lux
Wed 08, 11:45 PM10 ºC80 %960.6 hPa0 l/m2 225º SO 0 m/s0 m/s2.3 Lux
Wed 08, 11:55 PM11 ºC80 %960.6 hPa0 l/m2 247,5º OSO 0 m/s0 m/s2.3 Lux
Thu 09, 12:05 AM10.3 ºC79.1 %960.4 hPa0 l/m2 247,5º OSO 0 m/s0 m/s2.3 Lux
Thu 09, 12:15 AM9.9 ºC79.8 %960.4 hPa0 l/m2 180º S 0 m/s0 m/s2.3 Lux
Thu 09, 12:25 AM9.5 ºC78.5 %960.4 hPa0 l/m2 247,5º OSO 0 m/s0 m/s2.3 Lux
Thu 09, 12:35 AM10 ºC78.1 %960.5 hPa0 l/m2 0º N 0 m/s0 m/s2.3 Lux
Thu 09, 12:45 AM11.3 ºC80.4 %960.5 hPa0 l/m2 0º N 0 m/s0 m/s2.3 Lux
Thu 09, 12:55 AM10 ºC81.7 %960.4 hPa0 l/m2 0º N 0 m/s0 m/s2.3 Lux
Thu 09, 01:05 AM8.8 ºC82.2 %960.4 hPa0 l/m2 247,5º OSO 0 m/s0 m/s2.3 Lux
Thu 09, 01:15 AM9.6 ºC82.2 %960.5 hPa0 l/m2 225º SO 0 m/s0 m/s2.3 Lux
Thu 09, 01:25 AM9.7 ºC82.5 %960.4 hPa0 l/m2 247,5º OSO 0 m/s0 m/s2.3 Lux
Thu 09, 01:35 AM9.3 ºC82.3 %960.4 hPa0 l/m2 157,5º SSE 0 m/s0 m/s2.3 Lux
Thu 09, 01:45 AM8.8 ºC82.3 %960.2 hPa0 l/m2 180º S 0 m/s0 m/s2.3 Lux
Thu 09, 01:55 AM9 ºC82.3 %960.1 hPa0 l/m2 180º S 0.8 m/s1.2 m/s2.3 Lux
Thu 09, 02:05 AM9 ºC80.2 %960.1 hPa0 l/m2 247,5º OSO 1.1 m/s1.2 m/s2.3 Lux
Thu 09, 02:15 AM9.3 ºC77.4 %960.1 hPa0 l/m2 180º S 0.6 m/s0.6 m/s2.3 Lux
Thu 09, 02:25 AM10.4 ºC76.5 %960.1 hPa0 l/m2 180º S 0.7 m/s1.2 m/s2.3 Lux
Thu 09, 02:35 AM9.7 ºC76.5 %960.1 hPa0 l/m2 157,5º SSE 0.1 m/s0 m/s2.3 Lux
Thu 09, 02:45 AM10.5 ºC75.6 %960.2 hPa0 l/m2 0º N 0.1 m/s0 m/s2.3 Lux
Thu 09, 02:55 AM9.4 ºC79.6 %960.2 hPa0 l/m2 180º S 0 m/s0 m/s2.3 Lux
Thu 09, 03:05 AM9 ºC79.9 %960.2 hPa0 l/m2 180º S 0.2 m/s0.6 m/s2.3 Lux
Thu 09, 03:15 AM10 ºC77.2 %960.3 hPa0 l/m2 0º N 0.5 m/s1.2 m/s2.3 Lux
Thu 09, 03:25 AM8.8 ºC82.6 %960.4 hPa0 l/m2 180º S 0 m/s0 m/s2.3 Lux
Thu 09, 03:35 AM8.8 ºC79.2 %960.2 hPa0 l/m2 180º S 0.7 m/s1.2 m/s2.3 Lux
Thu 09, 03:45 AM9.8 ºC78 %960.4 hPa0 l/m2 225º SO 0.2 m/s0 m/s2.3 Lux
Thu 09, 03:55 AM8.5 ºC78 %960.3 hPa0 l/m2 270º O 0 m/s0 m/s2.3 Lux
Thu 09, 04:05 AM9.6 ºC80 %960.3 hPa0 l/m2 270º O 0 m/s0 m/s2.3 Lux
Thu 09, 04:15 AM9.6 ºC79.3 %960.3 hPa0 l/m2 225º SO 0 m/s0 m/s2.3 Lux
Thu 09, 04:25 AM8.4 ºC79.3 %960.1 hPa0 l/m2 247,5º OSO 0.1 m/s0.6 m/s2.3 Lux
Thu 09, 04:35 AM9.7 ºC79 %960 hPa0 l/m2 180º S 0.2 m/s0.6 m/s2.3 Lux
Thu 09, 04:45 AM9.1 ºC79.6 %960.1 hPa0 l/m2 0º N 0 m/s0 m/s2.3 Lux
Thu 09, 04:55 AM9.2 ºC77 %960.1 hPa0 l/m2 315º NO 0.2 m/s0.6 m/s2.3 Lux
Thu 09, 05:05 AM9.7 ºC77 %960 hPa0 l/m2 225º SO 0.2 m/s0 m/s2.3 Lux
Thu 09, 05:15 AM8.3 ºC79.3 %960.3 hPa0 l/m2 0º N 0 m/s0 m/s2.3 Lux
Thu 09, 05:25 AM9 ºC79.8 %960.2 hPa0 l/m2 0º N 0 m/s0 m/s2.3 Lux
Thu 09, 05:35 AM9 ºC79.8 %960.5 hPa0 l/m2 0º N 0 m/s0 m/s2.3 Lux
Thu 09, 05:45 AM9.2 ºC78.8 %960.3 hPa0 l/m2 315º NO 0 m/s0 m/s2.3 Lux
Thu 09, 05:55 AM8.7 ºC78.9 %960.5 hPa0 l/m2 315º NO 0 m/s0 m/s2.3 Lux
Thu 09, 06:05 AM8.4 ºC81.2 %960.4 hPa0 l/m2 225º SO 0 m/s0 m/s2.3 Lux
Thu 09, 06:15 AM8.3 ºC81.7 %960.5 hPa0 l/m2 0º N 0 m/s0 m/s2.3 Lux
Thu 09, 06:25 AM9.2 ºC76.6 %960.6 hPa0 l/m2 0º N 0 m/s0 m/s2.3 Lux
Thu 09, 06:35 AM8.8 ºC76.5 %960.5 hPa0 l/m2 0º N 0 m/s0 m/s2.3 Lux
Thu 09, 06:45 AM7.7 ºC77.8 %960.7 hPa0 l/m2 0º N 0 m/s0 m/s2.3 Lux
Thu 09, 06:55 AM8.7 ºC77.8 %960.6 hPa0 l/m2 225º SO 0 m/s0 m/s2.3 Lux
Thu 09, 07:05 AM7.7 ºC82.5 %960.7 hPa0 l/m2 112.5º ESE 0 m/s0 m/s2.3 Lux
Thu 09, 07:15 AM7.3 ºC82.7 %960.7 hPa0 l/m2 225º SO 0 m/s0 m/s2.4 Lux
Thu 09, 07:25 AM8.9 ºC78.3 %960.7 hPa0 l/m2 0º N 0 m/s0 m/s2.6 Lux
Thu 09, 07:35 AM8.5 ºC78.3 %960.8 hPa0 l/m2 315º NO 0 m/s0 m/s5.9 Lux
Thu 09, 07:45 AM6.3 ºC81.6 %960.9 hPa0 l/m2 270º O 0 m/s0 m/s26.7 Lux
Thu 09, 07:55 AM7.2 ºC81.5 %961.1 hPa0 l/m2 0º N 0 m/s0 m/s88 Lux
Thu 09, 08:05 AM7.7 ºC80.7 %961.2 hPa0 l/m2 0º N 0 m/s0 m/s194.8 Lux
Thu 09, 08:15 AM6.7 ºC81.7 %961.2 hPa0 l/m2 315º NO 0 m/s0 m/s502.5 Lux
Thu 09, 08:25 AM7.7 ºC82.3 %960.6 hPa0 l/m2 0º N 0 m/s0 m/s2197.4 Lux
Thu 09, 08:35 AM8.6 ºC80.4 %960.6 hPa0 l/m2 0º N 0 m/s0 m/s3003.2 Lux
Thu 09, 08:45 AM9.7 ºC68.7 %960.6 hPa0 l/m2 0º N 0 m/s0 m/s3575 Lux
Thu 09, 08:55 AM9.8 ºC64.9 %960.6 hPa0 l/m2 315º NO 0 m/s0 m/s4616.8 Lux
Thu 09, 09:05 AM10.8 ºC78.6 %960.5 hPa0 l/m2 0º N 0 m/s0 m/s4945.6 Lux
Thu 09, 09:15 AM11.1 ºC79.5 %960.7 hPa0 l/m2 0º N 0 m/s0 m/s5713.1 Lux
Thu 09, 09:25 AM11.2 ºC75.6 %960.7 hPa0 l/m2 225º SO 0 m/s0 m/s6162.9 Lux
Thu 09, 09:35 AM11.8 ºC74.8 %960.6 hPa0 l/m2 0º N 0 m/s0 m/s6665.8 Lux
Thu 09, 09:45 AM12.2 ºC72.2 %960.6 hPa0 l/m2 0º N 0 m/s0 m/s7230.4 Lux
Thu 09, 09:55 AM11.4 ºC74.5 %960.6 hPa0 l/m2 0º N 0 m/s0 m/s7866.8 Lux
Thu 09, 10:05 AM10.7 ºC78 %960.8 hPa0 l/m2 0º N 1.1 m/s1.8 m/s7866.8 Lux
Thu 09, 10:15 AM9 ºC79.8 %961 hPa0 l/m2 0º N 1.2 m/s1.8 m/s8587.7 Lux
Thu 09, 10:25 AM9.4 ºC79.2 %961.3 hPa0 l/m2 315º NO 0.9 m/s1.2 m/s8587.7 Lux
Thu 09, 10:35 AM10.5 ºC79.1 %961.4 hPa0 l/m2 315º NO 0.6 m/s1.2 m/s8587.7 Lux
Thu 09, 10:45 AM10.5 ºC75.1 %961.6 hPa0 l/m2 315º NO 0.4 m/s0.6 m/s7866.8 Lux
Thu 09, 10:55 AM10.6 ºC67.7 %961.6 hPa0 l/m2 315º NO 0.1 m/s0 m/s7866.8 Lux
Thu 09, 11:05 AM11.6 ºC67.7 %961.7 hPa0 l/m2 0º N 0 m/s0 m/s5713.1 Lux
Thu 09, 11:15 AM11.6 ºC66.1 %961.7 hPa0 l/m2 315º NO 0 m/s0 m/s3800.8 Lux
Thu 09, 11:25 AM11.9 ºC62.6 %961.9 hPa0 l/m2 315º NO 0 m/s0 m/s3003.2 Lux
Thu 09, 11:35 AM12.5 ºC62.6 %961.9 hPa0 l/m2 0º N 0.2 m/s0.6 m/s2841.9 Lux
Thu 09, 11:45 AM11.7 ºC60.1 %962 hPa0 l/m2 315º NO 0.4 m/s1.2 m/s2692.9 Lux
Thu 09, 11:55 AM13 ºC60.2 %961.8 hPa0 l/m2 270º O 0.8 m/s1.2 m/s2554.9 Lux
Thu 09, 12:05 PM12.5 ºC59.1 %962 hPa0 l/m2 0º N 0.4 m/s0.6 m/s2308 Lux
Thu 09, 12:15 PM13.5 ºC57 %962 hPa0 l/m2 315º NO 0.4 m/s1.8 m/s2308 Lux
Thu 09, 12:25 PM12.7 ºC57 %961.8 hPa0 l/m2 0º N 3.4 m/s4.2 m/s2692.9 Lux
Thu 09, 12:35 PM13.8 ºC54.3 %961.7 hPa0 l/m2 0º N 3.1 m/s4.2 m/s3003.2 Lux
Thu 09, 12:45 PM12.9 ºC54.5 %961.7 hPa0 l/m2 0º N 3.9 m/s4.2 m/s3368.1 Lux
Thu 09, 12:55 PM13.1 ºC52.6 %961.5 hPa0 l/m2 0º N 3.5 m/s4.2 m/s3575 Lux
Thu 09, 01:05 PM14.3 ºC51.9 %961.3 hPa0 l/m2 0º N 2.8 m/s4.8 m/s3575 Lux
Thu 09, 01:15 PM13.3 ºC50.9 %961.3 hPa0 l/m2 0º N 3 m/s3.6 m/s3800.8 Lux
Thu 09, 01:25 PM13.8 ºC50.2 %961.2 hPa0 l/m2 0º N 3.3 m/s3.6 m/s4047.8 Lux
Thu 09, 01:35 PM14.8 ºC48.9 %961 hPa0 l/m2 0º N 2 m/s2.4 m/s4318.8 Lux
Thu 09, 01:45 PM14.2 ºC48.8 %960.9 hPa0 l/m2 270º O 1.3 m/s1.8 m/s4616.8 Lux
Thu 09, 01:55 PM14.1 ºC48.3 %960.8 hPa0 l/m2 0º N 2.1 m/s2.4 m/s4945.6 Lux
Thu 09, 02:05 PM15.4 ºC47 %960.8 hPa0 l/m2 0º N 2.3 m/s3 m/s5309.4 Lux
Thu 09, 02:15 PM15.2 ºC47 %960.5 hPa0 l/m2 0º N 3.5 m/s4.2 m/s5713.1 Lux
Thu 09, 02:25 PM15.8 ºC47.3 %960.4 hPa0 l/m2 0º N 3.4 m/s4.2 m/s6162.9 Lux
Thu 09, 02:35 PM14.5 ºC49.8 %960.4 hPa0 l/m2 0º N 2.6 m/s4.2 m/s6665.8 Lux
Thu 09, 02:45 PM14.2 ºC46.1 %960.3 hPa0 l/m2 0º N 2.7 m/s3.6 m/s7230.4 Lux
Thu 09, 02:55 PM16 ºC44 %960.4 hPa0 l/m2 0º N 2.7 m/s3.6 m/s7230.4 Lux
Thu 09, 03:05 PM16 ºC44.5 %960.3 hPa0 l/m2 0º N 3.1 m/s3.6 m/s6665.8 Lux
Thu 09, 03:15 PM15.8 ºC46.6 %960.3 hPa0 l/m2 0º N 3.7 m/s4.8 m/s7230.4 Lux
Thu 09, 03:25 PM15.8 ºC44.6 %960.3 hPa0 l/m2 0º N 3.5 m/s3.6 m/s7866.8 Lux
Thu 09, 03:35 PM15.9 ºC45.1 %960.3 hPa0 l/m2 202,5º SSO 3.7 m/s4.8 m/s7866.8 Lux
Thu 09, 03:45 PM15.8 ºC40.6 %960.5 hPa0 l/m2 0º N 3.8 m/s4.8 m/s7866.8 Lux
Thu 09, 03:55 PM14.1 ºC40.6 %960.6 hPa0 l/m2 0º N 4.3 m/s4.8 m/s7230.4 Lux
Thu 09, 04:05 PM14.3 ºC42.6 %960.7 hPa0 l/m2 0º N 4.2 m/s5.4 m/s6665.8 Lux
Thu 09, 04:15 PM15.3 ºC42.6 %960.7 hPa0 l/m2 0º N 3 m/s3.6 m/s6162.9 Lux
Thu 09, 04:25 PM13.9 ºC41.6 %960.9 hPa0 l/m2 0º N 4.3 m/s4.2 m/s6162.9 Lux
Thu 09, 04:35 PM13.8 ºC41.2 %960.9 hPa0 l/m2 0º N 3.4 m/s4.2 m/s5309.4 Lux
Thu 09, 04:45 PM15.1 ºC42.2 %961.1 hPa0 l/m2 0º N 3.1 m/s4.2 m/s5309.4 Lux
Thu 09, 04:55 PM15.1 ºC43.5 %961.1 hPa0 l/m2 315º NO 2.4 m/s3 m/s4616.8 Lux
Thu 09, 05:05 PM14.7 ºC44.4 %961.1 hPa0 l/m2 0º N 2.7 m/s3 m/s4047.8 Lux
Thu 09, 05:15 PM14.6 ºC44.2 %961.6 hPa0 l/m2 0º N 2.5 m/s3.6 m/s3368.1 Lux
Thu 09, 05:25 PM13.4 ºC46.6 %961.4 hPa0 l/m2 0º N 1.4 m/s1.8 m/s2841.9 Lux
Thu 09, 05:35 PM14.2 ºC47.2 %961.6 hPa0 l/m2 0º N 1.8 m/s2.4 m/s2197.4 Lux
Thu 09, 05:45 PM12.8 ºC47.3 %961.6 hPa0 l/m2 0º N 1.2 m/s1.8 m/s1415.6 Lux
Thu 09, 05:55 PM13.6 ºC50.9 %962.2 hPa0 l/m2 0º N 0 m/s0 m/s243.8 Lux
Thu 09, 06:05 PM13.3 ºC49.3 %962.3 hPa0 l/m2 225º SO 0 m/s0 m/s123.1 Lux
Thu 09, 06:15 PM11.8 ºC49.7 %962.5 hPa0 l/m2 0º N 0 m/s0 m/s43.1 Lux
Thu 09, 06:25 PM11.9 ºC47.6 %962.6 hPa0 l/m2 315º NO 0.6 m/s2.4 m/s11 Lux
Thu 09, 06:35 PM11.6 ºC47.6 %962.7 hPa0 l/m2 0º N 1.2 m/s3 m/s3.5 Lux
Thu 09, 06:45 PM12.2 ºC49.1 %962.8 hPa0 l/m2 0º N 0.7 m/s2.4 m/s2.5 Lux
Thu 09, 06:55 PM11.1 ºC50.1 %962.9 hPa0 l/m2 0º N 0.6 m/s0.6 m/s2.4 Lux
Thu 09, 07:05 PM11.8 ºC51 %963 hPa0 l/m2 0º N 0 m/s0 m/s2.4 Lux
Thu 09, 07:15 PM11.5 ºC54.2 %963.1 hPa0 l/m2 0º N 0 m/s0 m/s2.4 Lux
Thu 09, 07:25 PM10.6 ºC54.5 %963.1 hPa0 l/m2 0º N 0 m/s0 m/s2.4 Lux
Thu 09, 07:35 PM11.4 ºC53.5 %963.1 hPa0 l/m2 315º NO 0.1 m/s0 m/s2.4 Lux
Thu 09, 07:45 PM11.3 ºC55.5 %963.1 hPa0 l/m2 270º O 0.2 m/s0.6 m/s2.4 Lux
Thu 09, 07:55 PM11 ºC55.5 %963.3 hPa0 l/m2 315º NO 0 m/s0 m/s2.4 Lux
Thu 09, 08:05 PM10.7 ºC57.8 %963.3 hPa0 l/m2 315º NO 0 m/s0 m/s2.4 Lux
Thu 09, 08:15 PM9.3 ºC61.6 %963.5 hPa0 l/m2 270º O 0 m/s0 m/s2.4 Lux
Thu 09, 08:25 PM9.4 ºC61.6 %963.5 hPa0 l/m2 315º NO 0 m/s0 m/s2.4 Lux
Thu 09, 08:35 PM8.8 ºC61.8 %963.6 hPa0 l/m2 247,5º OSO 0 m/s0 m/s2.4 Lux
Thu 09, 08:45 PM9.2 ºC62 %963.6 hPa0 l/m2 180º S 0 m/s0 m/s2.4 Lux
Thu 09, 08:55 PM9 ºC62 %963.6 hPa0 l/m2 180º S 0.2 m/s0.6 m/s2.4 Lux
Thu 09, 09:05 PM8.4 ºC65.3 %963.7 hPa0 l/m2 0º N 0.7 m/s1.2 m/s2.4 Lux
Thu 09, 09:15 PM9.3 ºC61.1 %963.9 hPa0 l/m2 180º S 1.2 m/s1.8 m/s2.4 Lux
Thu 09, 09:25 PM9.3 ºC61.7 %963.9 hPa0 l/m2 157,5º SSE 1.1 m/s1.2 m/s2.4 Lux
Thu 09, 09:35 PM9.3 ºC63.9 %963.9 hPa0 l/m2 180º S 0.5 m/s0.6 m/s2.4 Lux
Thu 09, 09:45 PM8.8 ºC61.6 %964 hPa0 l/m2 180º S 0.8 m/s1.2 m/s2.4 Lux
Thu 09, 09:55 PM9.4 ºC62 %964.1 hPa0 l/m2 180º S 0.9 m/s1.2 m/s2.4 Lux
Thu 09, 10:05 PM9.7 ºC60.8 %964.2 hPa0 l/m2 0º N 0.2 m/s0.6 m/s2.4 Lux
Thu 09, 10:15 PM7.6 ºC69.1 %964.3 hPa0 l/m2 0º N 0 m/s0 m/s2.3 Lux
Thu 09, 10:25 PM7.5 ºC68.6 %964.5 hPa0 l/m2 0º N 0 m/s0 m/s2.3 Lux
Thu 09, 10:35 PM7.9 ºC67.8 %964.4 hPa0 l/m2 0º N 0 m/s0 m/s2.3 Lux
Thu 09, 10:45 PM8.1 ºC69.6 %964.6 hPa0 l/m2 180º S 0.1 m/s0 m/s2.3 Lux
Thu 09, 10:55 PM8.5 ºC68.9 %964.6 hPa0 l/m2 225º SO 0 m/s0 m/s2.3 Lux
Thu 09, 11:05 PM8.3 ºC64.9 %964.8 hPa0 l/m2 180º S 0.4 m/s1.2 m/s2.3 Lux
Thu 09, 11:15 PM8.3 ºC65.1 %964.7 hPa0 l/m2 180º S 1.2 m/s1.8 m/s2.3 Lux
Thu 09, 11:25 PM8.1 ºC65.7 %964.9 hPa0 l/m2 180º S 0.8 m/s1.2 m/s2.3 Lux
Thu 09, 11:35 PM8.9 ºC67.1 %964.7 hPa0 l/m2 180º S 0.6 m/s1.2 m/s2.3 Lux
Thu 09, 11:45 PM9.2 ºC61.3 %964.9 hPa0 l/m2 180º S 1.4 m/s1.8 m/s2.3 Lux
Thu 09, 11:55 PM8.1 ºC68.2 %965 hPa0 l/m2 180º S 0.8 m/s1.2 m/s2.3 Lux
Fri 10, 12:05 AM8.8 ºC65.5 %965.1 hPa0 l/m2 180º S 1 m/s1.2 m/s2.3 Lux
Fri 10, 12:15 AM8.8 ºC67.4 %965.2 hPa0 l/m2 247,5º OSO 0.3 m/s0.6 m/s2.3 Lux
Fri 10, 12:25 AM7.8 ºC67.4 %965.2 hPa0 l/m2 180º S 0.5 m/s0.6 m/s2.3 Lux
Fri 10, 12:35 AM8.6 ºC67 %965.2 hPa0 l/m2 180º S 0.6 m/s0.6 m/s2.3 Lux
Fri 10, 12:45 AM7.8 ºC65.8 %965.2 hPa0 l/m2 180º S 0.8 m/s1.2 m/s2.3 Lux
Fri 10, 12:55 AM7.4 ºC70.1 %965.1 hPa0 l/m2 247,5º OSO 0.5 m/s1.2 m/s2.3 Lux
Fri 10, 01:05 AM7.5 ºC64 %965 hPa0 l/m2 180º S 0.6 m/s1.2 m/s2.3 Lux
Fri 10, 01:15 AM7.4 ºC63.5 %965 hPa0 l/m2 157,5º SSE 0.4 m/s0.6 m/s2.3 Lux
Fri 10, 01:25 AM8 ºC69.5 %964.9 hPa0 l/m2 180º S 0 m/s0 m/s2.3 Lux
Fri 10, 01:35 AM8.3 ºC68 %964.9 hPa0 l/m2 0º N 0.1 m/s0.6 m/s2.3 Lux
Fri 10, 01:45 AM4.6 ºC78.5 %965 hPa0 l/m2 247,5º OSO 0 m/s0 m/s2.3 Lux
Fri 10, 01:55 AM5.7 ºC76.4 %964.9 hPa0 l/m2 180º S 0 m/s0 m/s2.3 Lux
Fri 10, 02:15 AM6.8 ºC76.3 %964.8 hPa0 l/m2 180º S 0 m/s0 m/s2.3 Lux
Fri 10, 02:25 AM6.5 ºC74.7 %964.5 hPa0 l/m2 180º S 0 m/s0 m/s2.3 Lux
Fri 10, 02:35 AM6.7 ºC72.5 %964.5 hPa0 l/m2 180º S 0.5 m/s1.2 m/s2.3 Lux
Fri 10, 02:45 AM7.6 ºC72.5 %964.6 hPa0 l/m2 180º S 0.7 m/s1.2 m/s2.3 Lux
Fri 10, 02:55 AM6.9 ºC74.3 %964.5 hPa0 l/m2 0º N 0 m/s0 m/s2.3 Lux
Fri 10, 03:05 AM7 ºC73.8 %964.6 hPa0 l/m2 112.5º ESE 0 m/s0 m/s2.3 Lux
Fri 10, 03:15 AM5.5 ºC75.4 %964.6 hPa0 l/m2 0º N 0 m/s0 m/s2.3 Lux
Fri 10, 03:25 AM6.4 ºC75.7 %964.8 hPa0 l/m2 0º N 0 m/s0 m/s2.3 Lux
Fri 10, 03:35 AM4 ºC81.5 %965 hPa0 l/m2 0º N 0 m/s0 m/s2.3 Lux
Fri 10, 03:45 AM4.9 ºC80.5 %965 hPa0 l/m2 315º NO 0 m/s0 m/s2.3 Lux
Fri 10, 03:55 AM5.3 ºC80.3 %965 hPa0 l/m2 247,5º OSO 0 m/s0 m/s2.3 Lux
Fri 10, 04:05 AM5.2 ºC80.4 %965.1 hPa0 l/m2 180º S 0 m/s0 m/s2.3 Lux
Fri 10, 04:15 AM4.7 ºC78.4 %965.1 hPa0 l/m2 157,5º SSE 0 m/s0 m/s2.3 Lux
Fri 10, 04:25 AM6.2 ºC78.3 %965.1 hPa0 l/m2 180º S 0.2 m/s0.6 m/s2.3 Lux
Fri 10, 04:35 AM5.8 ºC75.2 %965 hPa0 l/m2 180º S 0.6 m/s1.2 m/s2.3 Lux
Fri 10, 04:45 AM5.8 ºC77.7 %964.9 hPa0 l/m2 180º S 0.5 m/s0.6 m/s2.3 Lux
Fri 10, 04:55 AM6 ºC74.8 %964.9 hPa0 l/m2 180º S 0.2 m/s0.6 m/s2.3 Lux
Fri 10, 05:05 AM6.5 ºC78.4 %964.8 hPa0 l/m2 0º N 0 m/s0 m/s2.3 Lux
Fri 10, 05:15 AM5.7 ºC78.1 %964.8 hPa0 l/m2 315º NO 0 m/s0 m/s2.3 Lux
Fri 10, 05:25 AM5.4 ºC79.4 %964.9 hPa0 l/m2 315º NO 0 m/s0 m/s2.3 Lux
Fri 10, 05:35 AM5.6 ºC79.3 %964.9 hPa0 l/m2 315º NO 0 m/s0 m/s2.3 Lux
Fri 10, 05:45 AM5.8 ºC79.3 %965 hPa0 l/m2 45º NE 0 m/s0 m/s2.3 Lux
Fri 10, 05:55 AM5.4 ºC77.8 %965 hPa0 l/m2 0º N 0 m/s0 m/s2.3 Lux
Fri 10, 06:05 AM5.4 ºC77.8 %964.9 hPa0 l/m2 180º S 0 m/s0 m/s2.3 Lux
Fri 10, 06:15 AM5.6 ºC81.1 %965 hPa0 l/m2 180º S 0 m/s0 m/s2.3 Lux
Fri 10, 06:25 AM5.2 ºC81 %964.9 hPa0 l/m2 0º N 0 m/s0 m/s2.3 Lux
Fri 10, 06:35 AM3.5 ºC82 %965 hPa0 l/m2 0º N 0 m/s0 m/s2.3 Lux
Fri 10, 06:45 AM4.3 ºC80.1 %965 hPa0 l/m2 157,5º SSE 0 m/s0 m/s2.3 Lux
Fri 10, 06:55 AM4.1 ºC80.1 %965.1 hPa0 l/m2 247,5º OSO 0 m/s0 m/s2.3 Lux
Fri 10, 07:05 AM5.8 ºC78.7 %965.2 hPa0 l/m2 247,5º OSO 0 m/s0 m/s2.3 Lux
Fri 10, 07:15 AM5.7 ºC77.6 %965.4 hPa0 l/m2 0º N 0 m/s0 m/s2.3 Lux
Fri 10, 07:25 AM6.7 ºC74.2 %965.6 hPa0 l/m2 0º N 0 m/s0 m/s2.6 Lux
Fri 10, 07:35 AM6 ºC76.8 %965.6 hPa0 l/m2 0º N 0 m/s0 m/s5.4 Lux
Fri 10, 07:45 AM3.8 ºC82.5 %965.6 hPa0 l/m2 0º N 0 m/s0 m/s23.7 Lux
Fri 10, 07:55 AM3.5 ºC82.7 %965.5 hPa0 l/m2 0º N 0 m/s0 m/s82.2 Lux
Fri 10, 08:05 AM4.3 ºC81.4 %965.4 hPa0 l/m2 180º S 0.2 m/s0.6 m/s179.7 Lux
Fri 10, 08:15 AM4.4 ºC81.4 %965.5 hPa0 l/m2 180º S 0 m/s0 m/s405.2 Lux
Fri 10, 08:25 AM6.5 ºC80.8 %964.7 hPa0 l/m2 315º NO 0 m/s0 m/s2308 Lux
Fri 10, 08:35 AM7.7 ºC77.3 %964.6 hPa0 l/m2 270º O 0 m/s0 m/s3003.2 Lux
Fri 10, 08:45 AM7 ºC77.2 %964.6 hPa0 l/m2 270º O 0 m/s0 m/s4047.8 Lux
Fri 10, 08:55 AM6.3 ºC75.4 %964.5 hPa0 l/m2 225º SO 0 m/s0 m/s4616.8 Lux
Fri 10, 09:05 AM7.5 ºC75.4 %964.4 hPa0 l/m2 315º NO 0 m/s0 m/s5309.4 Lux
Fri 10, 09:15 AM8 ºC68.9 %964.5 hPa0 l/m2 315º NO 0 m/s0 m/s5713.1 Lux
Fri 10, 09:25 AM8.7 ºC68.9 %964.3 hPa0 l/m2 270º O 0 m/s0 m/s6162.9 Lux
Fri 10, 09:35 AM8.6 ºC70.1 %964.4 hPa0 l/m2 270º O 0 m/s0 m/s6665.8 Lux
Fri 10, 09:45 AM8.2 ºC67.7 %964.4 hPa0 l/m2 0º N 0 m/s0 m/s7230.4 Lux
Fri 10, 09:55 AM7.9 ºC65.8 %964.5 hPa0 l/m2 0º N 0.1 m/s0 m/s7866.8 Lux
Fri 10, 10:05 AM9.1 ºC65.9 %964.6 hPa0 l/m2 0º N 0.7 m/s1.2 m/s8587.7 Lux
Fri 10, 10:15 AM9.2 ºC67.1 %964.7 hPa0 l/m2 315º NO 0.8 m/s1.2 m/s8587.7 Lux
Fri 10, 10:25 AM9.5 ºC66.7 %964.9 hPa0 l/m2 270º O 0.7 m/s1.2 m/s8587.7 Lux
Fri 10, 10:35 AM8.5 ºC66.5 %965.1 hPa0 l/m2 0º N 0.3 m/s0 m/s8587.7 Lux
Fri 10, 10:45 AM10.3 ºC66.8 %965.3 hPa0 l/m2 0º N 0.1 m/s0 m/s7866.8 Lux
Fri 10, 10:55 AM9.9 ºC65.9 %965.4 hPa0 l/m2 0º N 0.2 m/s1.2 m/s7230.4 Lux
Fri 10, 11:05 AM9.6 ºC62.2 %965.6 hPa0 l/m2 0º N 0.1 m/s1.2 m/s5713.1 Lux
Fri 10, 11:15 AM10.4 ºC62 %965.6 hPa0 l/m2 0º N 0 m/s0 m/s3575 Lux
Fri 10, 11:25 AM9.5 ºC67.6 %965.6 hPa0 l/m2 202,5º SSO 0.1 m/s0 m/s3003.2 Lux
Fri 10, 11:35 AM9.8 ºC60.5 %965.7 hPa0 l/m2 0º N 0.5 m/s1.2 m/s2692.9 Lux
Fri 10, 11:45 AM10.8 ºC60.5 %965.9 hPa0 l/m2 0º N 0.1 m/s0.6 m/s2426.9 Lux
Fri 10, 11:55 AM9.9 ºC57.5 %966 hPa0 l/m2 67,5º ENE 1.8 m/s2.4 m/s2308 Lux
Fri 10, 12:05 PM11.4 ºC57.1 %966 hPa0 l/m2 0º N 2.1 m/s3 m/s2094.2 Lux
Fri 10, 12:15 PM10.4 ºC56.8 %965.9 hPa0 l/m2 0º N 0.9 m/s1.2 m/s2197.4 Lux
Fri 10, 12:25 PM11.5 ºC57.8 %965.7 hPa0 l/m2 0º N 1.7 m/s2.4 m/s2554.9 Lux
Fri 10, 12:35 PM11.9 ºC58.9 %965.7 hPa0 l/m2 0º N 2.5 m/s3.6 m/s2841.9 Lux
Fri 10, 12:45 PM11.3 ºC52.6 %965.7 hPa0 l/m2 0º N 2.9 m/s3.6 m/s3178.1 Lux
Fri 10, 12:55 PM11.7 ºC53.2 %965.5 hPa0 l/m2 0º N 3.2 m/s4.2 m/s3368.1 Lux
Fri 10, 01:05 PM13.2 ºC50.3 %965.3 hPa0 l/m2 0º N 3.5 m/s4.2 m/s3575 Lux
Fri 10, 01:15 PM13.6 ºC48.5 %965.5 hPa0 l/m2 0º N 3.9 m/s5.4 m/s3800.8 Lux
Fri 10, 01:25 PM13.5 ºC52.4 %965.1 hPa0 l/m2 0º N 4.7 m/s5.4 m/s3800.8 Lux
Fri 10, 01:35 PM13.7 ºC46.7 %965 hPa0 l/m2 315º NO 4 m/s5.4 m/s4318.8 Lux
Fri 10, 01:45 PM13.8 ºC47.7 %965 hPa0 l/m2 0º N 2.6 m/s3 m/s4616.8 Lux
Fri 10, 01:55 PM14.3 ºC48.7 %964.9 hPa0 l/m2 0º N 3.8 m/s4.8 m/s4616.8 Lux
Fri 10, 02:05 PM13.1 ºC46.6 %964.9 hPa0.15 l/m2 67,5º ENE 5.1 m/s5.4 m/s4945.6 Lux
Fri 10, 02:15 PM13.8 ºC46.5 %965 hPa0 l/m2 0º N 4.5 m/s4.8 m/s5309.4 Lux
Fri 10, 02:25 PM15.2 ºC46.7 %964.8 hPa0 l/m2 0º N 3.6 m/s4.8 m/s6162.9 Lux
Fri 10, 02:35 PM15.5 ºC46.4 %964.9 hPa0 l/m2 0º N 3.2 m/s4.2 m/s6162.9 Lux
Fri 10, 02:45 PM15.5 ºC49.5 %964.7 hPa0 l/m2 0º N 3.4 m/s3.6 m/s6665.8 Lux
Fri 10, 02:55 PM15.7 ºC48.6 %964.5 hPa0 l/m2 0º N 1.8 m/s3 m/s7230.4 Lux
Fri 10, 03:05 PM14.2 ºC44.7 %964.6 hPa0 l/m2 0º N 2.1 m/s4.2 m/s6665.8 Lux
Fri 10, 03:15 PM14.7 ºC48 %964.5 hPa0 l/m2 0º N 3.5 m/s4.2 m/s6665.8 Lux
Fri 10, 03:25 PM15 ºC48.1 %964.5 hPa0 l/m2 0º N 3.4 m/s4.2 m/s7866.8 Lux
Fri 10, 03:35 PM14.9 ºC47.5 %964.5 hPa0 l/m2 0º N 3.7 m/s5.4 m/s7866.8 Lux
Fri 10, 03:45 PM14.5 ºC47.5 %964.3 hPa0 l/m2 0º N 3.2 m/s4.2 m/s7230.4 Lux
Fri 10, 03:55 PM15.2 ºC48 %964.5 hPa0 l/m2 0º N 3.1 m/s3.6 m/s7230.4 Lux
Fri 10, 04:05 PM14.7 ºC47.8 %964.4 hPa0 l/m2 0º N 3.1 m/s4.2 m/s7230.4 Lux
Fri 10, 04:15 PM16.1 ºC50 %964.5 hPa0 l/m2 0º N 2.6 m/s3.6 m/s6665.8 Lux
Fri 10, 04:25 PM15 ºC49.5 %964.6 hPa0 l/m2 0º N 3.3 m/s3.6 m/s6162.9 Lux
Fri 10, 04:35 PM14.8 ºC48.3 %964.6 hPa0 l/m2 0º N 4.4 m/s4.8 m/s5713.1 Lux
Fri 10, 04:45 PM14.9 ºC49.6 %964.9 hPa0 l/m2 0º N 5.2 m/s5.4 m/s5309.4 Lux
Fri 10, 04:55 PM14.6 ºC49.7 %965 hPa0 l/m2 0º N 4.8 m/s5.4 m/s4616.8 Lux
Fri 10, 05:05 PM15.6 ºC52.3 %965.3 hPa0 l/m2 67,5º ENE 4.8 m/s5.4 m/s4318.8 Lux
Fri 10, 05:15 PM14.3 ºC52 %965.3 hPa0 l/m2 0º N 4.1 m/s4.8 m/s3575 Lux
Fri 10, 05:25 PM15.2 ºC50.6 %965.1 hPa0 l/m2 0º N 4.9 m/s5.4 m/s3003.2 Lux
Fri 10, 05:35 PM13.7 ºC50.7 %965.1 hPa0 l/m2 0º N 5.2 m/s5.4 m/s2308 Lux
Fri 10, 05:45 PM14.6 ºC53.8 %965.4 hPa0 l/m2 0º N 3.7 m/s4.2 m/s1744.7 Lux
Fri 10, 05:55 PM13.3 ºC53.6 %966.1 hPa0 l/m2 0º N 2.6 m/s3 m/s227 Lux
Fri 10, 06:05 PM13.1 ºC53.5 %966.2 hPa0 l/m2 0º N 2.5 m/s2.4 m/s118.3 Lux
Fri 10, 06:15 PM12.7 ºC55 %966.2 hPa0 l/m2 0º N 2 m/s2.4 m/s40.7 Lux
Fri 10, 06:25 PM13.5 ºC56 %966.3 hPa0 l/m2 67,5º ENE 1.2 m/s1.8 m/s10.1 Lux
Fri 10, 06:35 PM13.4 ºC54.8 %966.3 hPa0 l/m2 0º N 0.6 m/s1.2 m/s3.4 Lux
Fri 10, 06:45 PM13.5 ºC55 %966.5 hPa0 l/m2 0º N 1.3 m/s1.2 m/s2.5 Lux
Fri 10, 06:55 PM13.4 ºC55 %966.5 hPa0 l/m2 0º N 1.6 m/s1.8 m/s2.4 Lux
Fri 10, 07:05 PM13.3 ºC56.5 %966.6 hPa0 l/m2 0º N 1.6 m/s1.8 m/s2.4 Lux
Fri 10, 07:15 PM12.9 ºC58.3 %966.8 hPa0 l/m2 67,5º ENE 0.1 m/s0 m/s2.4 Lux
Fri 10, 07:25 PM12.4 ºC58.2 %967 hPa0 l/m2 315º NO 0 m/s0 m/s2.4 Lux
Fri 10, 07:35 PM11 ºC61.4 %967.1 hPa0 l/m2 0º N 0 m/s0 m/s2.4 Lux
Fri 10, 07:45 PM12.4 ºC61.3 %967.1 hPa0 l/m2 225º SO 0 m/s0 m/s2.3 Lux
Fri 10, 07:55 PM11.8 ºC62.4 %967.3 hPa0 l/m2 247,5º OSO 0 m/s0 m/s2.4 Lux
Fri 10, 08:05 PM11.6 ºC64.3 %967.4 hPa0 l/m2 225º SO 0 m/s0 m/s2.4 Lux
Fri 10, 08:15 PM11.2 ºC64.3 %967.5 hPa0 l/m2 247,5º OSO 0 m/s0 m/s2.4 Lux
Fri 10, 08:25 PM11.4 ºC65.8 %967.4 hPa0 l/m2 247,5º OSO 0 m/s0 m/s2.4 Lux
Fri 10, 08:35 PM11.4 ºC64.9 %967.5 hPa0 l/m2 180º S 0 m/s0 m/s2.4 Lux
Fri 10, 08:45 PM10.9 ºC67 %967.5 hPa0 l/m2 247,5º OSO 0.2 m/s0.6 m/s2.4 Lux
Fri 10, 08:55 PM11.3 ºC67.4 %967.6 hPa0 l/m2 247,5º OSO 0 m/s0 m/s2.4 Lux
Fri 10, 09:05 PM9.8 ºC67.4 %967.5 hPa0 l/m2 180º S 0.1 m/s0 m/s2.4 Lux
Fri 10, 09:15 PM10.5 ºC66.5 %967.5 hPa0 l/m2 157,5º SSE 0.8 m/s1.2 m/s2.4 Lux
Fri 10, 09:25 PM9.4 ºC64.4 %967.5 hPa0 l/m2 180º S 0.2 m/s0.6 m/s2.4 Lux
Fri 10, 09:35 PM9.6 ºC67 %967.6 hPa0 l/m2 180º S 0.2 m/s0.6 m/s2.4 Lux
Fri 10, 09:45 PM10.7 ºC68.5 %967.6 hPa0 l/m2 180º S 0.2 m/s0.6 m/s2.4 Lux
Fri 10, 09:55 PM11.3 ºC67.9 %967.8 hPa0 l/m2 180º S 0.2 m/s0 m/s2.4 Lux
Fri 10, 10:05 PM10.6 ºC68 %967.8 hPa0 l/m2 0º N 0.3 m/s0.6 m/s2.4 Lux
Fri 10, 10:15 PM9.8 ºC68.9 %967.7 hPa0 l/m2 180º S 0 m/s0 m/s2.4 Lux
Fri 10, 10:25 PM9.5 ºC70.5 %967.9 hPa0 l/m2 270º O 0 m/s0 m/s2.4 Lux
Fri 10, 10:35 PM9.7 ºC70.1 %967.9 hPa0 l/m2 225º SO 0 m/s0 m/s2.4 Lux
Fri 10, 10:45 PM9.8 ºC71.7 %967.9 hPa0 l/m2 247,5º OSO 0 m/s0 m/s2.4 Lux
Fri 10, 10:55 PM8.7 ºC73.4 %967.8 hPa0 l/m2 180º S 0 m/s0 m/s2.3 Lux
Fri 10, 11:05 PM9.6 ºC72.1 %967.9 hPa0 l/m2 180º S 0.6 m/s1.2 m/s2.3 Lux
Fri 10, 11:15 PM9.7 ºC71.4 %967.8 hPa0 l/m2 180º S 0.5 m/s1.2 m/s2.3 Lux
Fri 10, 11:25 PM9.7 ºC70.3 %967.7 hPa0 l/m2 247,5º OSO 0.6 m/s0.6 m/s2.3 Lux
Fri 10, 11:35 PM9.5 ºC68.4 %967.6 hPa0 l/m2 247,5º OSO 0.6 m/s1.2 m/s2.3 Lux
Fri 10, 11:45 PM9 ºC72.9 %967.7 hPa0 l/m2 180º S 0.2 m/s0.6 m/s2.3 Lux
Fri 10, 11:55 PM8.6 ºC72.3 %967.7 hPa0 l/m2 180º S 0.1 m/s0 m/s2.3 Lux
Sat 11, 12:05 AM7.7 ºC73.5 %967.6 hPa0 l/m2 180º S 0.1 m/s0 m/s2.3 Lux
Sat 11, 12:15 AM8.9 ºC74.2 %967.6 hPa0 l/m2 180º S 0 m/s0 m/s2.3 Lux
Sat 11, 12:25 AM9.5 ºC74.2 %967.6 hPa0 l/m2 0º N 0.1 m/s0 m/s2.3 Lux
Sat 11, 12:35 AM7.7 ºC73.7 %967.6 hPa0 l/m2 112.5º ESE 0 m/s0 m/s2.3 Lux
Sat 11, 12:45 AM8 ºC71.7 %967.7 hPa0 l/m2 225º SO 0 m/s0 m/s2.3 Lux
Sat 11, 12:55 AM8.5 ºC75.6 %967.6 hPa0 l/m2 180º S 0 m/s0 m/s2.3 Lux
Sat 11, 01:05 AM8.9 ºC75.7 %967.6 hPa0 l/m2 247,5º OSO 0.1 m/s0.6 m/s2.3 Lux
Sat 11, 01:15 AM7.3 ºC74.3 %967.6 hPa0 l/m2 0º N 0.1 m/s0 m/s2.3 Lux
Sat 11, 01:25 AM7.6 ºC75 %967.6 hPa0 l/m2 0º N 0 m/s0 m/s2.3 Lux
Sat 11, 01:35 AM8 ºC76.6 %967.5 hPa0 l/m2 0º N 0 m/s0 m/s2.3 Lux
Sat 11, 01:45 AM7.3 ºC79.1 %967.4 hPa0 l/m2 0º N 0 m/s0 m/s2.3 Lux
Sat 11, 01:55 AM7.2 ºC80.2 %967.3 hPa0 l/m2 112.5º ESE 0 m/s0 m/s2.3 Lux
Sat 11, 02:05 AM6.9 ºC80.2 %967.2 hPa0 l/m2 0º N 0 m/s0 m/s2.3 Lux
Sat 11, 02:15 AM7.2 ºC77.5 %967 hPa0 l/m2 180º S 0.1 m/s0 m/s2.3 Lux
Sat 11, 02:25 AM8.4 ºC77.5 %967 hPa0 l/m2 0º N 0.5 m/s1.2 m/s2.3 Lux
Sat 11, 02:35 AM8 ºC78.3 %966.9 hPa0 l/m2 180º S 0 m/s0 m/s2.3 Lux
Sat 11, 02:45 AM7.9 ºC78.8 %966.9 hPa0 l/m2 225º SO 0 m/s0 m/s2.3 Lux
Sat 11, 02:55 AM7.8 ºC78.8 %966.9 hPa0 l/m2 180º S 0 m/s0 m/s2.3 Lux
Sat 11, 03:05 AM7.9 ºC79.8 %966.8 hPa0 l/m2 247,5º OSO 0 m/s0 m/s2.3 Lux
Sat 11, 03:15 AM6.9 ºC78.8 %966.7 hPa0 l/m2 180º S 0 m/s0 m/s2.3 Lux
Sat 11, 03:25 AM7.1 ºC80.2 %966.7 hPa0 l/m2 180º S 0 m/s0 m/s2.3 Lux
Sat 11, 03:35 AM8 ºC81.8 %966.5 hPa0 l/m2 180º S 0 m/s0 m/s2.3 Lux
Sat 11, 03:45 AM7.7 ºC80.1 %966.4 hPa0 l/m2 180º S 0.3 m/s1.2 m/s2.3 Lux
Sat 11, 03:55 AM7.3 ºC78.8 %966.2 hPa0 l/m2 180º S 0.8 m/s1.2 m/s2.3 Lux
Sat 11, 04:05 AM8.6 ºC79.6 %966.1 hPa0 l/m2 0º N 0.7 m/s0.6 m/s2.3 Lux
Sat 11, 04:15 AM6.4 ºC79.6 %966 hPa0 l/m2 0º N 0.3 m/s0.6 m/s2.3 Lux
Sat 11, 04:25 AM6.4 ºC81 %966 hPa0 l/m2 225º SO 0 m/s0 m/s2.3 Lux
Sat 11, 04:35 AM7.6 ºC81.4 %966 hPa0 l/m2 180º S 0 m/s0 m/s2.3 Lux
Sat 11, 04:45 AM6.9 ºC82.6 %966 hPa0 l/m2 0º N 0 m/s0 m/s2.3 Lux
Sat 11, 04:55 AM5.9 ºC82.9 %966 hPa0 l/m2 0º N 0 m/s0 m/s2.3 Lux
Sat 11, 05:05 AM6.6 ºC83 %966.1 hPa0 l/m2 0º N 0 m/s0 m/s2.3 Lux
Sat 11, 05:15 AM5.6 ºC86 %966.1 hPa0 l/m2 247,5º OSO 0 m/s0 m/s2.3 Lux
Sat 11, 05:25 AM6.4 ºC86.1 %966.2 hPa0 l/m2 315º NO 0 m/s0 m/s2.3 Lux
Sat 11, 05:35 AM6.4 ºC84.3 %966.2 hPa0 l/m2 247,5º OSO 0 m/s0 m/s2.3 Lux
Sat 11, 05:45 AM6.6 ºC85.1 %966.3 hPa0 l/m2 0º N 0 m/s0 m/s2.3 Lux
Sat 11, 05:55 AM5.3 ºC84.4 %966.3 hPa0 l/m2 0º N 0 m/s0 m/s2.3 Lux
Sat 11, 06:05 AM6 ºC85.8 %966.4 hPa0 l/m2 0º N 0 m/s0 m/s2.3 Lux
Sat 11, 06:15 AM5.7 ºC85.8 %966.5 hPa0 l/m2 315º NO 0 m/s0 m/s2.3 Lux
Sat 11, 06:25 AM5.8 ºC86.9 %966.3 hPa0 l/m2 157,5º SSE 0 m/s0 m/s2.3 Lux
Sat 11, 06:35 AM5.2 ºC87.2 %966.3 hPa0 l/m2 0º N 0 m/s0 m/s2.3 Lux
Sat 11, 06:45 AM6.7 ºC86 %966.3 hPa0 l/m2 180º S 0 m/s0 m/s2.3 Lux
Sat 11, 06:55 AM6.6 ºC86 %966.3 hPa0 l/m2 180º S 0 m/s0 m/s2.3 Lux
Sat 11, 07:05 AM6.4 ºC86.7 %966.4 hPa0 l/m2 180º S 0 m/s0 m/s2.3 Lux
Sat 11, 07:15 AM6.7 ºC86.7 %966.4 hPa0 l/m2 180º S 0 m/s0 m/s2.3 Lux
Sat 11, 07:25 AM7 ºC86.5 %966.3 hPa0 l/m2 180º S 0 m/s0 m/s2.6 Lux
Sat 11, 07:35 AM8.2 ºC85.1 %966.3 hPa0 l/m2 180º S 0.3 m/s1.2 m/s5.5 Lux
Sat 11, 07:45 AM8 ºC84.7 %966.2 hPa0 l/m2 180º S 0.2 m/s0.6 m/s22.8 Lux
Sat 11, 07:55 AM8.4 ºC82.3 %966.3 hPa0 l/m2 225º SO 0 m/s0 m/s73 Lux
Sat 11, 08:05 AM9.5 ºC76.8 %966.4 hPa0 l/m2 0º N 0 m/s0 m/s158.8 Lux
Sat 11, 08:15 AM3.2 ºC90.8 %966.5 hPa0 l/m2 0º N 0.2 m/s0.6 m/s347.3 Lux
Sat 11, 08:25 AM5.5 ºC90.2 %965.9 hPa0 l/m2 0º N 0 m/s0 m/s1998 Lux
Sat 11, 08:35 AM6.6 ºC88.3 %966 hPa0 l/m2 247,5º OSO 0 m/s0 m/s2554.9 Lux
Sat 11, 08:45 AM7.8 ºC88.2 %966 hPa0 l/m2 315º NO 0 m/s0 m/s3800.8 Lux
Sat 11, 08:55 AM8.8 ºC86.9 %966 hPa0 l/m2 315º NO 0 m/s0 m/s4318.8 Lux
Sat 11, 09:05 AM10.1 ºC83.6 %965.9 hPa0 l/m2 180º S 0 m/s0 m/s4945.6 Lux
Sat 11, 09:15 AM11.1 ºC83.6 %965.9 hPa0 l/m2 180º S 0 m/s0 m/s5713.1 Lux
Sat 11, 09:25 AM11.3 ºC81.2 %965.9 hPa0 l/m2 180º S 0 m/s0 m/s6162.9 Lux
Sat 11, 09:35 AM12.7 ºC81.2 %965.8 hPa0 l/m2 247,5º OSO 0.1 m/s0.6 m/s6665.8 Lux
Sat 11, 09:45 AM13.7 ºC76 %965.9 hPa0 l/m2 0º N 0 m/s0 m/s7230.4 Lux
Sat 11, 09:55 AM14.1 ºC76 %965.9 hPa0 l/m2 90º E 0 m/s0 m/s7866.8 Lux
Sat 11, 10:05 AM15.3 ºC75 %966 hPa0 l/m2 0º N 0 m/s0 m/s8587.7 Lux
Sat 11, 10:15 AM13.2 ºC79.6 %966 hPa0 l/m2 0º N 0.3 m/s1.2 m/s8587.7 Lux
Sat 11, 10:25 AM11.9 ºC83.8 %965.8 hPa0 l/m2 0º N 0.4 m/s0.6 m/s8587.7 Lux
Sat 11, 10:35 AM11.7 ºC81.2 %965.8 hPa0 l/m2 0º N 0.2 m/s0 m/s8587.7 Lux
Sat 11, 10:45 AM10.9 ºC81.2 %965.8 hPa0 l/m2 0º N 0 m/s0 m/s7866.8 Lux
Sat 11, 10:55 AM12.5 ºC78.9 %965.8 hPa0 l/m2 0º N 0 m/s0 m/s7866.8 Lux
Sat 11, 11:05 AM12.2 ºC77.1 %965.9 hPa0 l/m2 315º NO 0.1 m/s0 m/s6162.9 Lux
Sat 11, 11:15 AM13.2 ºC75.8 %966 hPa0 l/m2 315º NO 0 m/s0 m/s3800.8 Lux
Sat 11, 11:25 AM12.8 ºC74.4 %966.1 hPa0 l/m2 0º N 0 m/s0 m/s3003.2 Lux
Sat 11, 11:35 AM13.1 ºC74.5 %966.1 hPa0 l/m2 0º N 0 m/s0 m/s2692.9 Lux
Sat 11, 11:45 AM13.2 ºC70.6 %966.1 hPa0 l/m2 315º NO 0 m/s0 m/s2554.9 Lux
Sat 11, 11:55 AM12.8 ºC70.6 %966.1 hPa0 l/m2 0º N 0 m/s0 m/s2308 Lux
Sat 11, 12:05 PM13.7 ºC71.3 %966 hPa0 l/m2 315º NO 0 m/s0 m/s2197.4 Lux
Sat 11, 12:15 PM13.8 ºC68.9 %965.8 hPa0 l/m2 0º N 0 m/s0 m/s2197.4 Lux
Sat 11, 12:25 PM14.6 ºC68.6 %965.7 hPa0 l/m2 225º SO 0 m/s0 m/s2554.9 Lux
Sat 11, 12:35 PM14.2 ºC67.9 %965.5 hPa0 l/m2 315º NO 0.2 m/s0.6 m/s2841.9 Lux
Sat 11, 12:45 PM14.9 ºC67.9 %965.4 hPa0 l/m2 0º N 0 m/s0 m/s3178.1 Lux
Sat 11, 12:55 PM16.3 ºC67.1 %965.3 hPa0 l/m2 0º N 0 m/s0 m/s3575 Lux
Sat 11, 01:05 PM17 ºC66.8 %965.1 hPa0 l/m2 112.5º ESE 0.2 m/s0.6 m/s3575 Lux
Sat 11, 01:15 PM16.9 ºC66.5 %965 hPa0 l/m2 270º O 0 m/s0 m/s3800.8 Lux
Sat 11, 01:25 PM17.2 ºC65.8 %964.9 hPa0 l/m2 315º NO 0.1 m/s0 m/s4047.8 Lux
Sat 11, 01:35 PM16 ºC60.6 %964.6 hPa0 l/m2 0º N 0.3 m/s0.6 m/s4318.8 Lux
Sat 11, 01:45 PM17.3 ºC60.6 %964.5 hPa0 l/m2 0º N 1.6 m/s2.4 m/s4616.8 Lux
Sat 11, 01:55 PM16.3 ºC59.9 %964.2 hPa0 l/m2 0º N 2.5 m/s3 m/s4945.6 Lux
Sat 11, 02:05 PM17.1 ºC59.7 %964.3 hPa0 l/m2 202,5º SSO 2.4 m/s3.6 m/s5309.4 Lux
Sat 11, 02:15 PM17.4 ºC59.2 %964.2 hPa0 l/m2 0º N 1.9 m/s2.4 m/s6162.9 Lux
Sat 11, 02:25 PM16.7 ºC57.2 %964.1 hPa0 l/m2 0º N 2.3 m/s3.6 m/s6665.8 Lux
Sat 11, 02:35 PM16.7 ºC57.4 %964 hPa0 l/m2 0º N 2.4 m/s3 m/s7230.4 Lux
Sat 11, 02:45 PM17 ºC57.3 %964 hPa0 l/m2 315º NO 2.2 m/s3.6 m/s7230.4 Lux
Sat 11, 02:55 PM18.3 ºC54.9 %963.7 hPa0 l/m2 0º N 2.4 m/s3.6 m/s7230.4 Lux
Sat 11, 03:05 PM17 ºC54.9 %963.8 hPa0 l/m2 0º N 3.7 m/s4.8 m/s6665.8 Lux
Sat 11, 03:15 PM18.3 ºC54 %963.6 hPa0 l/m2 0º N 3.8 m/s4.8 m/s7230.4 Lux
Sat 11, 03:25 PM17.4 ºC54 %963.6 hPa0 l/m2 0º N 2.8 m/s3.6 m/s7866.8 Lux
Sat 11, 03:35 PM18.7 ºC54.8 %963.4 hPa0 l/m2 0º N 2.4 m/s3.6 m/s7866.8 Lux
Sat 11, 03:45 PM17.8 ºC54.6 %963.5 hPa0 l/m2 0º N 2.1 m/s2.4 m/s7866.8 Lux
Sat 11, 03:55 PM18.5 ºC53.1 %963.5 hPa0 l/m2 0º N 4 m/s4.2 m/s7230.4 Lux
Sat 11, 04:05 PM17.7 ºC52.7 %963.6 hPa0 l/m2 0º N 2.8 m/s4.2 m/s6665.8 Lux
Sat 11, 04:15 PM18.9 ºC52.7 %963.5 hPa0 l/m2 0º N 2.5 m/s3.6 m/s6162.9 Lux
Sat 11, 04:25 PM19.4 ºC54 %963.5 hPa0 l/m2 0º N 1.9 m/s3.6 m/s6162.9 Lux
Sat 11, 04:35 PM17.9 ºC53.8 %963.5 hPa0 l/m2 22,5º NNE 1.9 m/s2.4 m/s5713.1 Lux
Sat 11, 04:45 PM17.7 ºC53.8 %963.5 hPa0 l/m2 0º N 3.2 m/s4.8 m/s5309.4 Lux
Sat 11, 04:55 PM18.5 ºC55 %963.4 hPa0 l/m2 315º NO 3.6 m/s4.2 m/s4616.8 Lux
Sat 11, 05:05 PM16.9 ºC54.6 %963.6 hPa0 l/m2 0º N 3.8 m/s4.2 m/s4318.8 Lux
Sat 11, 05:15 PM16.9 ºC54.6 %963.7 hPa0 l/m2 0º N 3.4 m/s4.2 m/s3575 Lux
Sat 11, 05:25 PM16.6 ºC54.6 %963.7 hPa0 l/m2 0º N 2.8 m/s4.2 m/s3003.2 Lux
Sat 11, 05:35 PM17.5 ºC54.7 %963.7 hPa0 l/m2 0º N 2.2 m/s3 m/s2426.9 Lux
Sat 11, 05:45 PM17.2 ºC55.8 %963.8 hPa0 l/m2 0º N 1.5 m/s2.4 m/s1744.7 Lux
Sat 11, 05:55 PM16.7 ºC57.1 %964.2 hPa0 l/m2 0º N 0.9 m/s1.2 m/s208.2 Lux
Sat 11, 06:05 PM15.5 ºC59.5 %964.2 hPa0 l/m2 225º SO 0.2 m/s0.6 m/s109.4 Lux
Sat 11, 06:15 PM15 ºC59.5 %964.2 hPa0 l/m2 225º SO 0.1 m/s0 m/s37 Lux
Sat 11, 06:25 PM15.8 ºC61 %964.3 hPa0 l/m2 225º SO 0.1 m/s0 m/s8.6 Lux
Sat 11, 06:35 PM14.5 ºC63.5 %964.2 hPa0 l/m2 180º S 0 m/s0 m/s3 Lux
Sat 11, 06:45 PM14.9 ºC64 %964.3 hPa0 l/m2 315º NO 0 m/s0 m/s2.4 Lux
Sat 11, 06:55 PM14.5 ºC64 %964.2 hPa0 l/m2 247,5º OSO 0 m/s0 m/s2.4 Lux
Sat 11, 07:05 PM14.5 ºC63.7 %964.3 hPa0 l/m2 270º O 0 m/s0 m/s2.4 Lux
Sat 11, 07:15 PM15.1 ºC63.7 %964.3 hPa0 l/m2 247,5º OSO 0 m/s0 m/s2.4 Lux
Sat 11, 07:25 PM14.2 ºC66.1 %964.3 hPa0 l/m2 270º O 0 m/s0 m/s2.3 Lux
Sat 11, 07:35 PM15.1 ºC64.2 %964.4 hPa0 l/m2 247,5º OSO 0 m/s0 m/s2.3 Lux
Sat 11, 07:45 PM14.9 ºC64.5 %964.4 hPa0 l/m2 270º O 0 m/s0 m/s2.3 Lux
Sat 11, 07:55 PM13.9 ºC64.5 %964.4 hPa0 l/m2 315º NO 0 m/s0 m/s2.3 Lux
Sat 11, 08:05 PM12.7 ºC65.9 %964.5 hPa0 l/m2 247,5º OSO 0 m/s0 m/s2.3 Lux
Sat 11, 08:15 PM12.9 ºC67.9 %964.5 hPa0 l/m2 247,5º OSO 0 m/s0 m/s2.3 Lux
Sat 11, 08:25 PM13.1 ºC67.9 %964.5 hPa0 l/m2 225º SO 0 m/s0 m/s2.3 Lux
Sat 11, 08:35 PM13.2 ºC68.5 %964.5 hPa0 l/m2 112.5º ESE 0 m/s0 m/s2.3 Lux
Sat 11, 08:45 PM12 ºC70.9 %964.4 hPa0 l/m2 247,5º OSO 0 m/s0 m/s2.3 Lux
Sat 11, 08:55 PM12.5 ºC71.1 %964.6 hPa0 l/m2 180º S 0 m/s0 m/s2.3 Lux
Sat 11, 09:05 PM12.1 ºC71.2 %964.6 hPa0 l/m2 225º SO 0 m/s0 m/s2.3 Lux
Sat 11, 09:15 PM12.4 ºC68.9 %964.6 hPa0 l/m2 225º SO 0 m/s0 m/s2.3 Lux
Sat 11, 09:25 PM12.5 ºC68.9 %964.6 hPa0 l/m2 180º S 0 m/s0 m/s2.3 Lux
Sat 11, 09:35 PM12.2 ºC71.5 %964.6 hPa0 l/m2 157,5º SSE 0.1 m/s0 m/s2.3 Lux
Sat 11, 09:45 PM13.5 ºC68 %964.5 hPa0 l/m2 180º S 1.2 m/s1.2 m/s2.3 Lux
Sat 11, 09:55 PM13 ºC68 %964.5 hPa0 l/m2 180º S 1.1 m/s1.2 m/s2.3 Lux
Sat 11, 10:05 PM11.5 ºC70.1 %964.4 hPa0 l/m2 247,5º OSO 0 m/s0 m/s2.3 Lux
Sat 11, 10:15 PM11.4 ºC71.7 %964.4 hPa0 l/m2 0º N 0 m/s0 m/s2.3 Lux
Sat 11, 10:25 PM12.9 ºC72.3 %964.3 hPa0 l/m2 157,5º SSE 0 m/s0 m/s2.3 Lux
Sat 11, 10:35 PM11.1 ºC72.2 %964.4 hPa0 l/m2 180º S 0 m/s0 m/s2.3 Lux
Sat 11, 10:45 PM11.7 ºC71.9 %964.3 hPa0 l/m2 180º S 0 m/s0 m/s2.3 Lux
Sat 11, 10:55 PM11.2 ºC75 %964.3 hPa0 l/m2 180º S 0 m/s0 m/s2.3 Lux
Sat 11, 11:05 PM10.9 ºC72.9 %964.1 hPa0 l/m2 112.5º ESE 0 m/s0 m/s2.3 Lux
Sat 11, 11:15 PM11.1 ºC72.9 %964.2 hPa0 l/m2 247,5º OSO 0 m/s0 m/s2.3 Lux
Sat 11, 11:25 PM10.4 ºC74.6 %964.2 hPa0 l/m2 180º S 0 m/s0 m/s2.3 Lux
Sat 11, 11:35 PM11.1 ºC75.6 %964.1 hPa0 l/m2 180º S 0 m/s0 m/s2.3 Lux
Sat 11, 11:45 PM10.8 ºC75.4 %964 hPa0 l/m2 180º S 0 m/s0 m/s2.3 Lux
Sat 11, 11:55 PM10.5 ºC76.2 %964.1 hPa0 l/m2 157,5º SSE 0 m/s0 m/s2.3 Lux
Sun 12, 12:05 AM10.8 ºC76.6 %964.1 hPa0 l/m2 180º S 0.5 m/s0.6 m/s2.3 Lux
Sun 12, 12:15 AM11.1 ºC76.6 %964 hPa0 l/m2 247,5º OSO 0.4 m/s0.6 m/s2.3 Lux
Sun 12, 12:25 AM10.4 ºC75.2 %964.1 hPa0 l/m2 180º S 0.7 m/s1.2 m/s2.3 Lux
Sun 12, 12:35 AM10.1 ºC74.6 %964 hPa0 l/m2 247,5º OSO 1 m/s1.2 m/s2.3 Lux
Sun 12, 12:45 AM9.4 ºC75.6 %963.8 hPa0 l/m2 180º S 0.9 m/s1.2 m/s2.3 Lux
Sun 12, 12:55 AM10.3 ºC72 %963.8 hPa0 l/m2 180º S 1 m/s1.2 m/s2.3 Lux
Sun 12, 01:05 AM10 ºC75.8 %963.7 hPa0 l/m2 180º S 0.4 m/s1.2 m/s2.3 Lux
Sun 12, 01:15 AM9.2 ºC76.3 %963.6 hPa0 l/m2 180º S 0 m/s0 m/s2.3 Lux
Sun 12, 01:25 AM8.7 ºC78.1 %963.6 hPa0 l/m2 180º S 0 m/s0 m/s2.3 Lux
Sun 12, 01:35 AM9.4 ºC78.1 %963.5 hPa0 l/m2 157,5º SSE 0.1 m/s0 m/s2.3 Lux
Sun 12, 01:45 AM9.2 ºC79.6 %963.5 hPa0 l/m2 180º S 0 m/s0 m/s2.3 Lux
Sun 12, 01:55 AM8.9 ºC79.2 %963.4 hPa0 l/m2 180º S 0 m/s0 m/s2.3 Lux
Sun 12, 02:05 AM9.2 ºC79.2 %963.4 hPa0 l/m2 112.5º ESE 0 m/s0 m/s2.3 Lux
Sun 12, 02:15 AM9.7 ºC81.3 %963.4 hPa0 l/m2 180º S 0 m/s0 m/s2.3 Lux
Sun 12, 02:25 AM9.1 ºC80.3 %963.2 hPa0 l/m2 180º S 0.2 m/s0.6 m/s2.3 Lux
Sun 12, 02:35 AM8.5 ºC79.3 %963.2 hPa0 l/m2 0º N 0.2 m/s0.6 m/s2.3 Lux
Sun 12, 02:45 AM9.3 ºC79.4 %963.1 hPa0 l/m2 157,5º SSE 1 m/s1.2 m/s2.3 Lux
Sun 12, 02:55 AM8.5 ºC79.4 %963 hPa0 l/m2 180º S 1.5 m/s1.2 m/s2.3 Lux
Sun 12, 03:05 AM8.7 ºC77.3 %963 hPa0 l/m2 180º S 1.5 m/s1.2 m/s2.3 Lux
Sun 12, 03:15 AM8.8 ºC77.7 %962.9 hPa0 l/m2 180º S 1.5 m/s1.2 m/s2.3 Lux
Sun 12, 03:25 AM9.3 ºC77.7 %962.7 hPa0 l/m2 180º S 1.3 m/s1.2 m/s2.3 Lux
Sun 12, 03:35 AM9.1 ºC75.6 %962.7 hPa0 l/m2 180º S 1.7 m/s1.8 m/s2.3 Lux
Sun 12, 03:45 AM9.3 ºC72.4 %962.6 hPa0 l/m2 180º S 1.6 m/s1.8 m/s2.3 Lux
Sun 12, 03:55 AM9.3 ºC77.3 %962.6 hPa0 l/m2 180º S 1.5 m/s1.8 m/s2.3 Lux
Sun 12, 04:05 AM8.2 ºC77.3 %962.5 hPa0 l/m2 0º N 1.2 m/s1.2 m/s2.3 Lux
Sun 12, 04:15 AM9.2 ºC79.6 %962.5 hPa0 l/m2 247,5º OSO 0.9 m/s1.8 m/s2.3 Lux
Sun 12, 04:25 AM9.1 ºC72.7 %962.5 hPa0 l/m2 180º S 1.7 m/s1.8 m/s2.3 Lux
Sun 12, 04:35 AM9 ºC74 %962.5 hPa0 l/m2 180º S 1.5 m/s1.8 m/s2.3 Lux
Sun 12, 04:45 AM9.4 ºC73.9 %962.4 hPa0 l/m2 180º S 1.1 m/s1.2 m/s2.3 Lux
Sun 12, 04:55 AM9 ºC77.4 %962.4 hPa0 l/m2 180º S 0.6 m/s0.6 m/s2.3 Lux
Sun 12, 05:05 AM9 ºC80.4 %962.5 hPa0 l/m2 180º S 0.1 m/s0 m/s2.3 Lux
Sun 12, 05:15 AM7.4 ºC81.1 %962.5 hPa0 l/m2 180º S 0.1 m/s0.6 m/s2.3 Lux
Sun 12, 05:25 AM8.4 ºC82.6 %962.6 hPa0 l/m2 180º S 0 m/s0 m/s2.3 Lux
Sun 12, 05:35 AM8.2 ºC82.6 %962.6 hPa0 l/m2 247,5º OSO 0 m/s0 m/s2.3 Lux
Sun 12, 05:45 AM7.1 ºC83.8 %962.6 hPa0 l/m2 180º S 0.7 m/s1.2 m/s2.3 Lux
Sun 12, 05:55 AM8.1 ºC76.5 %962.6 hPa0 l/m2 180º S 1.6 m/s1.8 m/s2.3 Lux
Sun 12, 06:05 AM7.6 ºC76.6 %962.6 hPa0 l/m2 180º S 0.8 m/s1.2 m/s2.3 Lux
Sun 12, 06:15 AM8.3 ºC82.3 %962.5 hPa0 l/m2 180º S 0.9 m/s1.2 m/s2.3 Lux
Sun 12, 06:25 AM8.7 ºC82 %962.4 hPa0 l/m2 180º S 1.3 m/s1.2 m/s2.3 Lux
Sun 12, 06:35 AM8.9 ºC82 %962.4 hPa0 l/m2 180º S 1.2 m/s1.2 m/s2.3 Lux
Sun 12, 06:45 AM8.6 ºC83.8 %962.3 hPa0 l/m2 45º NE 0.5 m/s1.2 m/s2.3 Lux
Sun 12, 06:55 AM7.4 ºC78.1 %962.3 hPa0 l/m2 180º S 0.9 m/s1.8 m/s2.3 Lux
Sun 12, 07:05 AM7.6 ºC78 %962.3 hPa0 l/m2 157,5º SSE 1.7 m/s1.8 m/s2.3 Lux
Sun 12, 07:15 AM8.6 ºC82.1 %962.3 hPa0 l/m2 247,5º OSO 1.1 m/s1.8 m/s2.3 Lux
Sun 12, 07:25 AM7.4 ºC82.1 %962.3 hPa0 l/m2 180º S 0.7 m/s1.2 m/s2.6 Lux
Sun 12, 07:35 AM8.8 ºC75.2 %962.3 hPa0 l/m2 0º N 1.6 m/s1.8 m/s5.4 Lux
Sun 12, 07:45 AM9.2 ºC80.5 %962.3 hPa0 l/m2 0º N 0.5 m/s1.2 m/s22.2 Lux
Sun 12, 07:55 AM6.9 ºC84.6 %962.5 hPa0 l/m2 315º NO 0 m/s0 m/s75.3 Lux
Sun 12, 08:05 AM7.6 ºC86.2 %962.4 hPa0 l/m2 225º SO 0 m/s0 m/s166.2 Lux
Sun 12, 08:15 AM6.7 ºC86.5 %962.5 hPa0 l/m2 0º N 0 m/s0 m/s289 Lux
Sun 12, 08:25 AM8.3 ºC82.9 %961.6 hPa0 l/m2 180º S 0.2 m/s0.6 m/s2197.4 Lux
Sun 12, 08:35 AM9.6 ºC82.9 %961.5 hPa0 l/m2 180º S 0.3 m/s0.6 m/s3003.2 Lux
Sun 12, 08:45 AM9.4 ºC79.6 %961.4 hPa0 l/m2 112.5º ESE 0.9 m/s1.2 m/s3800.8 Lux
Sun 12, 08:55 AM10.5 ºC81.1 %961.5 hPa0 l/m2 180º S 0.4 m/s0.6 m/s4616.8 Lux
Sun 12, 09:05 AM11.7 ºC80.9 %961.6 hPa0 l/m2 270º O 0 m/s0 m/s4945.6 Lux
Sun 12, 09:15 AM11.7 ºC81.4 %961.6 hPa0 l/m2 225º SO 0 m/s0 m/s5713.1 Lux
Sun 12, 09:25 AM12.2 ºC80.4 %961.6 hPa0 l/m2 0º N 0 m/s0 m/s6162.9 Lux
Sun 12, 09:35 AM11.1 ºC79.9 %961.8 hPa0 l/m2 0º N 0 m/s0 m/s6665.8 Lux
Sun 12, 09:45 AM13.6 ºC79.9 %961.7 hPa0 l/m2 0º N 0 m/s0 m/s7866.8 Lux
Sun 12, 09:55 AM14.5 ºC78.6 %961.6 hPa0 l/m2 0º N 0 m/s0 m/s7866.8 Lux
Sun 12, 10:05 AM12.8 ºC82.3 %961.6 hPa0 l/m2 0º N 0 m/s0 m/s8587.7 Lux
Sun 12, 10:15 AM12.5 ºC82.6 %961.7 hPa0 l/m2 0º N 0 m/s0 m/s8587.7 Lux
Sun 12, 10:25 AM13.3 ºC81.3 %961.6 hPa0 l/m2 0º N 0 m/s0 m/s8587.7 Lux
Sun 12, 10:35 AM12.9 ºC78.8 %961.5 hPa0 l/m2 0º N 0 m/s0 m/s8587.7 Lux
Sun 12, 10:45 AM12.3 ºC78.8 %961.6 hPa0 l/m2 0º N 0 m/s0 m/s7866.8 Lux
Sun 12, 10:55 AM13 ºC78 %961.6 hPa0 l/m2 0º N 0 m/s0 m/s7230.4 Lux
Sun 12, 11:05 AM13.3 ºC77.1 %961.7 hPa0 l/m2 0º N 0 m/s0 m/s6162.9 Lux
Sun 12, 11:15 AM14 ºC76.1 %961.9 hPa0 l/m2 0º N 0 m/s0 m/s3575 Lux
Sun 12, 11:25 AM14.2 ºC75.9 %961.7 hPa0 l/m2 0º N 0 m/s0 m/s3003.2 Lux
Sun 12, 11:35 AM14.4 ºC74.5 %961.7 hPa0 l/m2 0º N 0 m/s0 m/s2841.9 Lux
Sun 12, 11:45 AM14.8 ºC73 %961.6 hPa0 l/m2 0º N 0 m/s0 m/s2554.9 Lux
Sun 12, 11:55 AM14.9 ºC72.3 %961.6 hPa0 l/m2 0º N 0 m/s0 m/s2308 Lux
Sun 12, 12:05 PM15.5 ºC69.3 %961.7 hPa0 l/m2 0º N 0 m/s0 m/s2197.4 Lux
Sun 12, 12:15 PM16.2 ºC68.3 %961.5 hPa0 l/m2 0º N 0.3 m/s0.6 m/s2197.4 Lux
Sun 12, 12:25 PM15.9 ºC64.3 %961.4 hPa0 l/m2 0º N 0.5 m/s0.6 m/s2554.9 Lux
Sun 12, 12:35 PM16.5 ºC64.6 %961.2 hPa0 l/m2 0º N 0.5 m/s0.6 m/s2841.9 Lux
Sun 12, 12:45 PM16.3 ºC60.9 %961.2 hPa0 l/m2 292,5º ONO 0.6 m/s1.2 m/s3178.1 Lux
Sun 12, 12:55 PM17 ºC61 %961 hPa0 l/m2 315º NO 0.7 m/s1.2 m/s3575 Lux
Sun 12, 01:05 PM16.9 ºC59.2 %960.9 hPa0 l/m2 0º N 0.4 m/s0.6 m/s3800.8 Lux
Sun 12, 01:15 PM16.8 ºC58.6 %960.8 hPa0 l/m2 270º O 1.1 m/s1.8 m/s3800.8 Lux
Sun 12, 01:25 PM17.2 ºC59.1 %960.5 hPa0 l/m2 0º N 0.6 m/s1.2 m/s4047.8 Lux
Sun 12, 01:35 PM18.1 ºC56.3 %960.4 hPa0 l/m2 0º N 0.7 m/s2.4 m/s4318.8 Lux
Sun 12, 01:45 PM18.2 ºC56.3 %960.2 hPa0 l/m2 315º NO 0.8 m/s1.2 m/s5309.4 Lux
Sun 12, 01:55 PM18.4 ºC54.4 %960.3 hPa0 l/m2 0º N 2 m/s3 m/s6665.8 Lux
Sun 12, 02:05 PM18.9 ºC54 %960.1 hPa0 l/m2 0º N 2.2 m/s3 m/s7230.4 Lux
Sun 12, 02:15 PM18.9 ºC56.6 %960 hPa0 l/m2 0º N 2.1 m/s3 m/s7230.4 Lux
Sun 12, 02:25 PM18.7 ºC48.7 %959.9 hPa0 l/m2 315º NO 1.8 m/s2.4 m/s7866.8 Lux
Sun 12, 02:35 PM19.6 ºC48.6 %959.9 hPa0 l/m2 0º N 2.7 m/s4.2 m/s5309.4 Lux
Sun 12, 02:45 PM18.9 ºC48.9 %959.6 hPa0 l/m2 0º N 3.5 m/s3.6 m/s7230.4 Lux
Sun 12, 02:55 PM19.1 ºC50.2 %959.3 hPa0 l/m2 0º N 2.5 m/s3.6 m/s7866.8 Lux
Sun 12, 03:05 PM19.4 ºC48.4 %959.1 hPa0 l/m2 0º N 3.4 m/s4.2 m/s8587.7 Lux
Sun 12, 03:15 PM19.1 ºC47.6 %959 hPa0 l/m2 315º NO 2.9 m/s4.2 m/s9408.2 Lux
Sun 12, 03:25 PM20 ºC46.6 %959.2 hPa0 l/m2 0º N 3.8 m/s4.8 m/s7230.4 Lux
Sun 12, 03:35 PM19.8 ºC45.2 %958.9 hPa0 l/m2 0º N 4.5 m/s4.8 m/s9408.2 Lux
Sun 12, 03:45 PM18.2 ºC40.1 %959 hPa0 l/m2 315º NO 4.6 m/s5.4 m/s8587.7 Lux
Sun 12, 03:55 PM18.1 ºC44.3 %958.9 hPa0 l/m2 0º N 3.7 m/s4.8 m/s7866.8 Lux
Sun 12, 04:05 PM18.9 ºC43.7 %959.6 hPa0 l/m2 0º N 3.1 m/s3.6 m/s1998 Lux
Sun 12, 04:15 PM18.6 ºC46 %959.6 hPa0 l/m2 315º NO 2.6 m/s3 m/s1823.7 Lux
Sun 12, 04:25 PM17.4 ºC46 %959.5 hPa0 l/m2 0º N 3 m/s3.6 m/s2426.9 Lux
Sun 12, 04:35 PM17.5 ºC46.9 %958.9 hPa0 l/m2 202,5º SSO 2.9 m/s3.6 m/s6162.9 Lux
Sun 12, 04:45 PM17.6 ºC46.9 %959 hPa0 l/m2 0º N 3.1 m/s4.2 m/s6162.9 Lux
Sun 12, 04:55 PM18.8 ºC47.8 %959.1 hPa0 l/m2 0º N 3.5 m/s4.2 m/s5309.4 Lux
Sun 12, 05:05 PM17.4 ºC47.9 %959.2 hPa0 l/m2 0º N 3.8 m/s4.2 m/s4318.8 Lux
Sun 12, 05:15 PM18.4 ºC53.7 %959.4 hPa0 l/m2 270º O 2.4 m/s3 m/s3575 Lux
Sun 12, 05:25 PM18 ºC54.9 %959.5 hPa0 l/m2 315º NO 2.4 m/s3 m/s3003.2 Lux
Sun 12, 05:35 PM17.6 ºC54.1 %959.5 hPa0 l/m2 315º NO 2.1 m/s2.4 m/s2308 Lux
Sun 12, 05:45 PM17.2 ºC56.1 %959.6 hPa0 l/m2 0º N 1.7 m/s1.8 m/s1601 Lux
Sun 12, 05:55 PM16.9 ºC58.6 %960.1 hPa0 l/m2 0º N 1.2 m/s1.8 m/s208.2 Lux
Sun 12, 06:05 PM15.4 ºC59.7 %960.1 hPa0 l/m2 0º N 0.1 m/s0 m/s101.5 Lux
Sun 12, 06:15 PM16 ºC60.2 %960.1 hPa0 l/m2 315º NO 0 m/s0 m/s32.3 Lux
Sun 12, 06:25 PM15.4 ºC61.3 %960.1 hPa0 l/m2 315º NO 0 m/s0 m/s6.9 Lux
Sun 12, 06:35 PM15.9 ºC61.3 %960.1 hPa0 l/m2 270º O 0 m/s0 m/s2.8 Lux
Sun 12, 06:45 PM13.9 ºC62.6 %960.1 hPa0 l/m2 247,5º OSO 0 m/s0 m/s2.3 Lux
Sun 12, 06:55 PM14.3 ºC63.2 %960.2 hPa0 l/m2 0º N 0 m/s0 m/s2.3 Lux
Sun 12, 07:05 PM15.7 ºC63.2 %960.2 hPa0 l/m2 315º NO 0 m/s0 m/s2.3 Lux
Sun 12, 07:15 PM15.1 ºC66.8 %960.4 hPa0 l/m2 270º O 0 m/s0 m/s2.3 Lux
Sun 12, 07:25 PM14.6 ºC66.8 %960.4 hPa0 l/m2 315º NO 0 m/s0 m/s2.3 Lux
Sun 12, 07:35 PM13.4 ºC65.7 %960.3 hPa0 l/m2 315º NO 0 m/s0 m/s2.3 Lux
Sun 12, 07:45 PM13.4 ºC67.6 %960.3 hPa0 l/m2 270º O 0 m/s0 m/s2.3 Lux
Sun 12, 07:55 PM13.4 ºC69.2 %960.5 hPa0 l/m2 315º NO 0 m/s0 m/s2.3 Lux
Sun 12, 08:05 PM12.5 ºC70.7 %960.5 hPa0 l/m2 180º S 0 m/s0 m/s2.3 Lux
Sun 12, 08:15 PM13.3 ºC70.9 %960.4 hPa0 l/m2 225º SO 0 m/s0 m/s2.3 Lux
Sun 12, 08:25 PM13 ºC71 %960.2 hPa0 l/m2 180º S 0 m/s0 m/s2.3 Lux
Sun 12, 08:35 PM12.4 ºC73 %960.3 hPa0 l/m2 112.5º ESE 0 m/s0 m/s2.3 Lux
Sun 12, 08:45 PM11.6 ºC75.2 %960.3 hPa0 l/m2 180º S 0 m/s0 m/s2.3 Lux
Sun 12, 08:55 PM12 ºC75.2 %960.4 hPa0 l/m2 180º S 0 m/s0 m/s2.3 Lux
Sun 12, 09:05 PM12.2 ºC73.9 %960.5 hPa0 l/m2 292,5º ONO 0 m/s0 m/s2.3 Lux
Sun 12, 09:15 PM11.8 ºC73.9 %960.5 hPa0 l/m2 247,5º OSO 0 m/s0 m/s2.3 Lux
Sun 12, 09:25 PM11.9 ºC74.1 %960.4 hPa0 l/m2 225º SO 0 m/s0 m/s2.3 Lux
Sun 12, 09:35 PM12.6 ºC74 %960.4 hPa0 l/m2 247,5º OSO 0 m/s0 m/s2.3 Lux
Sun 12, 09:45 PM12.3 ºC75.6 %960.2 hPa0 l/m2 180º S 0 m/s0 m/s2.3 Lux
Sun 12, 09:55 PM11.8 ºC75.8 %960.2 hPa0 l/m2 225º SO 0 m/s0 m/s2.3 Lux
Sun 12, 10:05 PM12.8 ºC73.7 %960.1 hPa0 l/m2 225º SO 0 m/s0 m/s2.3 Lux
Sun 12, 10:15 PM11.9 ºC75.1 %960.1 hPa0 l/m2 180º S 0 m/s0 m/s2.3 Lux
Sun 12, 10:25 PM11.6 ºC76.5 %960.2 hPa0 l/m2 180º S 0 m/s0 m/s2.3 Lux
Sun 12, 10:35 PM11.8 ºC76.2 %960.3 hPa0 l/m2 180º S 0 m/s0 m/s2.3 Lux
Sun 12, 10:45 PM10.5 ºC78.3 %960.3 hPa0 l/m2 247,5º OSO 0 m/s0 m/s2.3 Lux
Sun 12, 10:55 PM11.4 ºC77.1 %960.4 hPa0 l/m2 247,5º OSO 0 m/s0 m/s2.3 Lux
Sun 12, 11:05 PM10.6 ºC77.1 %960.3 hPa0 l/m2 180º S 0 m/s0 m/s2.3 Lux
Sun 12, 11:15 PM11.6 ºC79.9 %960.3 hPa0 l/m2 180º S 0 m/s0 m/s2.3 Lux
Sun 12, 11:25 PM11.6 ºC79.9 %960.1 hPa0 l/m2 180º S 0.1 m/s0 m/s2.3 Lux
Sun 12, 11:35 PM11.7 ºC79.7 %960 hPa0 l/m2 180º S 0.1 m/s0.6 m/s2.3 Lux
Sun 12, 11:45 PM12.7 ºC79.7 %959.8 hPa0 l/m2 180º S 0.3 m/s0 m/s2.3 Lux
Sun 12, 11:55 PM11.5 ºC81.3 %959.9 hPa0 l/m2 247,5º OSO 0 m/s0 m/s2.3 Lux
Mon 13, 12:05 AM10.7 ºC77.2 %959.9 hPa0 l/m2 180º S 0 m/s0 m/s2.3 Lux
Mon 13, 12:15 AM10.7 ºC79.8 %959.8 hPa0 l/m2 180º S 0 m/s0 m/s2.3 Lux
Mon 13, 12:25 AM11.3 ºC80.7 %959.9 hPa0 l/m2 180º S 0 m/s0 m/s2.3 Lux
Mon 13, 12:35 AM11.4 ºC78.3 %959.8 hPa0 l/m2 180º S 0 m/s0 m/s2.3 Lux
Mon 13, 12:45 AM11.4 ºC79.6 %959.8 hPa0 l/m2 247,5º OSO 0 m/s0 m/s2.3 Lux
Mon 13, 12:55 AM11.5 ºC81.2 %959.5 hPa0 l/m2 225º SO 0 m/s0 m/s2.3 Lux
Mon 13, 01:05 AM10.6 ºC81.2 %959.4 hPa0 l/m2 247,5º OSO 0 m/s0 m/s2.3 Lux
Mon 13, 01:15 AM10.6 ºC80.5 %959.1 hPa0 l/m2 112.5º ESE 0 m/s0 m/s2.3 Lux
Mon 13, 01:25 AM10 ºC83.2 %959.1 hPa0 l/m2 180º S 0 m/s0 m/s2.3 Lux
Mon 13, 01:35 AM10.6 ºC83.2 %959 hPa0 l/m2 247,5º OSO 0 m/s0 m/s2.3 Lux
Mon 13, 01:45 AM10.4 ºC82.3 %958.8 hPa0 l/m2 180º S 0 m/s0 m/s2.3 Lux
Mon 13, 01:55 AM10.5 ºC83 %958.9 hPa0 l/m2 0º N 0 m/s0 m/s2.3 Lux
Mon 13, 02:05 AM10.5 ºC83.1 %958.8 hPa0 l/m2 180º S 0 m/s0 m/s2.3 Lux
Mon 13, 02:15 AM10 ºC83.1 %958.8 hPa0 l/m2 247,5º OSO 0 m/s0 m/s2.3 Lux
Mon 13, 02:25 AM9.8 ºC82.7 %958.9 hPa0 l/m2 180º S 0 m/s0 m/s2.3 Lux
Mon 13, 02:35 AM9.9 ºC84.2 %958.8 hPa0 l/m2 225º SO 0 m/s0 m/s2.3 Lux
Mon 13, 02:45 AM10.4 ºC83.3 %958.8 hPa0 l/m2 315º NO 0 m/s0 m/s2.3 Lux
Mon 13, 02:55 AM10.6 ºC81.9 %958.8 hPa0 l/m2 0º N 0 m/s0 m/s2.3 Lux
Mon 13, 03:05 AM9.5 ºC78.9 %958.8 hPa0 l/m2 247,5º OSO 0 m/s0 m/s2.3 Lux
Mon 13, 03:15 AM8.6 ºC82.6 %958.7 hPa0 l/m2 247,5º OSO 0 m/s0 m/s2.3 Lux
Mon 13, 03:25 AM9.4 ºC84.2 %958.8 hPa0 l/m2 247,5º OSO 0 m/s0 m/s2.3 Lux
Mon 13, 03:35 AM10.5 ºC82.6 %958.7 hPa0 l/m2 247,5º OSO 0 m/s0 m/s2.3 Lux
Mon 13, 03:45 AM10.9 ºC82.7 %958.6 hPa0 l/m2 225º SO 0 m/s0 m/s2.3 Lux
Mon 13, 03:55 AM10.6 ºC84.4 %958.5 hPa0 l/m2 225º SO 0 m/s0 m/s2.3 Lux
Mon 13, 04:05 AM10.6 ºC85.1 %958.4 hPa0 l/m2 247,5º OSO 0 m/s0 m/s2.3 Lux
Mon 13, 04:15 AM9.7 ºC85.4 %958.5 hPa0 l/m2 225º SO 0 m/s0 m/s2.3 Lux
Mon 13, 04:25 AM10.7 ºC86.9 %958.4 hPa0 l/m2 225º SO 0 m/s0 m/s2.3 Lux
Mon 13, 04:35 AM10.4 ºC88.3 %958.3 hPa0 l/m2 247,5º OSO 0 m/s0 m/s2.3 Lux
Mon 13, 04:45 AM9.6 ºC89.7 %958.3 hPa0 l/m2 315º NO 0 m/s0 m/s2.3 Lux
Mon 13, 04:55 AM9.1 ºC89.7 %958.3 hPa0 l/m2 315º NO 0 m/s0 m/s2.3 Lux
Mon 13, 05:05 AM10.4 ºC90 %958.1 hPa0 l/m2 247,5º OSO 0 m/s0 m/s2.3 Lux
Mon 13, 05:15 AM9 ºC91.8 %958.1 hPa0 l/m2 247,5º OSO 0 m/s0 m/s2.3 Lux
Mon 13, 05:25 AM9.1 ºC95.6 %958 hPa0 l/m2 0º N 0 m/s0 m/s2.3 Lux
Mon 13, 05:35 AM9.4 ºC95.6 %957.9 hPa0 l/m2 247,5º OSO 0 m/s0 m/s2.3 Lux
Mon 13, 05:45 AM9.4 ºC95 %957.9 hPa0 l/m2 157,5º SSE 0 m/s0 m/s2.3 Lux
Mon 13, 05:55 AM9.6 ºC96.2 %957.8 hPa0 l/m2 247,5º OSO 0 m/s0 m/s2.3 Lux
Mon 13, 06:05 AM9 ºC97.3 %957.7 hPa0 l/m2 247,5º OSO 0 m/s0 m/s2.3 Lux
Mon 13, 06:15 AM9 ºC99 %957.6 hPa0 l/m2 180º S 0 m/s0 m/s2.3 Lux
Mon 13, 06:25 AM9 ºC99.7 %957.6 hPa0 l/m2 247,5º OSO 0 m/s0 m/s2.3 Lux
Mon 13, 06:35 AM7.7 ºC99.9 %957.5 hPa0 l/m2 0º N 0 m/s0 m/s2.3 Lux
Mon 13, 06:45 AM8.6 ºC99.9 %957.6 hPa0 l/m2 0º N 0 m/s0 m/s2.3 Lux
Mon 13, 06:56 AM7.1 ºC99.9 %957.8 hPa0 l/m2 0º N 0 m/s0 m/s2.3 Lux
Mon 13, 07:06 AM8.1 ºC99.9 %957.7 hPa0 l/m2 315º NO 0 m/s0 m/s2.3 Lux
Mon 13, 07:16 AM7.9 ºC99.9 %957.7 hPa0 l/m2 67,5º ENE 0 m/s0 m/s2.3 Lux
Mon 13, 07:26 AM7.9 ºC99.9 %957.9 hPa0 l/m2 0º N 0 m/s0 m/s2.5 Lux
Mon 13, 07:36 AM7 ºC99.9 %957.8 hPa0 l/m2 180º S 0 m/s0 m/s4.8 Lux
Mon 13, 07:46 AM7.9 ºC99.9 %957.9 hPa0 l/m2 180º S 0 m/s0 m/s18.7 Lux
Mon 13, 07:56 AM7.9 ºC99.9 %957.8 hPa0 l/m2 180º S 0 m/s0 m/s64.5 Lux
Mon 13, 08:06 AM7.5 ºC99.9 %957.9 hPa0 l/m2 0º N 0 m/s0 m/s149.7 Lux
Mon 13, 08:16 AM7.4 ºC99.9 %957.8 hPa0 l/m2 157,5º SSE 0 m/s0 m/s319.4 Lux
Mon 13, 08:26 AM8.2 ºC99.9 %957.3 hPa0 l/m2 180º S 0 m/s0 m/s1308.8 Lux
Mon 13, 08:36 AM9.4 ºC63.5 %957.2 hPa0 l/m2 180º S 0 m/s0 m/s2197.4 Lux
Mon 13, 08:46 AM10.1 ºC63.5 %957.2 hPa0 l/m2 157,5º SSE 0 m/s0 m/s3003.2 Lux
Mon 13, 08:56 AM11.3 ºC74.6 %957.2 hPa0 l/m2 67,5º ENE 0 m/s0 m/s3800.8 Lux
Mon 13, 09:06 AM11.8 ºC74.3 %957.3 hPa0 l/m2 0º N 0 m/s0 m/s4318.8 Lux
Mon 13, 09:16 AM11 ºC92.6 %957.5 hPa0 l/m2 0º N 0 m/s0 m/s4616.8 Lux
Mon 13, 09:26 AM11.5 ºC81 %957.5 hPa0 l/m2 0º N 0 m/s0 m/s5309.4 Lux
Mon 13, 09:36 AM13 ºC81 %957.5 hPa0 l/m2 315º NO 0 m/s0 m/s5713.1 Lux
Mon 13, 09:46 AM11.4 ºC92 %957.6 hPa0 l/m2 0º N 0 m/s0 m/s6162.9 Lux
Mon 13, 09:56 AM11.4 ºC92 %957.7 hPa0 l/m2 0º N 0 m/s0 m/s6665.8 Lux
Mon 13, 10:06 AM12.1 ºC92.3 %957.5 hPa0 l/m2 0º N 0 m/s0 m/s7230.4 Lux
Mon 13, 10:16 AM12.7 ºC89.5 %957.4 hPa0 l/m2 67,5º ENE 0 m/s0 m/s8587.7 Lux
Mon 13, 10:26 AM12.8 ºC88.8 %957.5 hPa0 l/m2 0º N 0 m/s0 m/s7866.8 Lux
Mon 13, 10:36 AM13.2 ºC88.7 %957.5 hPa0 l/m2 0º N 0 m/s0 m/s7866.8 Lux
Mon 13, 10:46 AM11.9 ºC84.7 %957.5 hPa0 l/m2 0º N 0 m/s0 m/s7866.8 Lux
Mon 13, 10:56 AM12.5 ºC89 %957.5 hPa0 l/m2 0º N 0 m/s0 m/s7230.4 Lux
Mon 13, 11:06 AM12.8 ºC88.5 %957.6 hPa0 l/m2 0º N 0.2 m/s1.2 m/s5713.1 Lux
Mon 13, 11:16 AM12.1 ºC86.9 %957.6 hPa0 l/m2 0º N 0.1 m/s0 m/s3575 Lux
Mon 13, 11:26 AM12.6 ºC85.7 %957.7 hPa0 l/m2 315º NO 0.1 m/s0.6 m/s3178.1 Lux
Mon 13, 11:36 AM12.8 ºC85.7 %957.8 hPa0 l/m2 0º N 0 m/s0 m/s2841.9 Lux
Mon 13, 11:46 AM13 ºC83.4 %957.7 hPa0 l/m2 0º N 0.5 m/s1.8 m/s2692.9 Lux
Mon 13, 11:56 AM12.9 ºC81.5 %957.8 hPa0 l/m2 0º N 0.5 m/s1.2 m/s2554.9 Lux
Mon 13, 12:06 PM12.3 ºC82.7 %957.7 hPa0 l/m2 0º N 0.4 m/s0.6 m/s2308 Lux
Mon 13, 12:16 PM13.3 ºC78.9 %957.5 hPa0 l/m2 0º N 1 m/s1.2 m/s2426.9 Lux
Mon 13, 12:26 PM13.4 ºC79.2 %957.6 hPa0 l/m2 315º NO 1.2 m/s1.2 m/s2692.9 Lux
Mon 13, 12:36 PM13.3 ºC77.5 %957.4 hPa0 l/m2 0º N 0.7 m/s1.8 m/s3003.2 Lux
Mon 13, 12:46 PM14.8 ºC79 %957.2 hPa0 l/m2 315º NO 0.1 m/s0 m/s3368.1 Lux
Mon 13, 12:56 PM15.1 ºC77.1 %957 hPa0 l/m2 0º N 0.1 m/s0 m/s3575 Lux
Mon 13, 01:06 PM15.1 ºC74 %956.9 hPa0 l/m2 0º N 0.1 m/s0 m/s3800.8 Lux
Mon 13, 01:16 PM14.9 ºC72.6 %956.8 hPa0 l/m2 67,5º ENE 0.4 m/s0.6 m/s3800.8 Lux
Mon 13, 01:26 PM15.4 ºC72.6 %956.7 hPa0 l/m2 0º N 0.1 m/s0 m/s4047.8 Lux
Mon 13, 01:36 PM17.3 ºC73 %956.5 hPa0 l/m2 0º N 0 m/s0 m/s4318.8 Lux
Mon 13, 01:46 PM16.5 ºC72.6 %956.3 hPa0 l/m2 0º N 0.2 m/s0.6 m/s4945.6 Lux
Mon 13, 01:56 PM16.9 ºC71.1 %956.1 hPa0 l/m2 315º NO 0.4 m/s1.2 m/s5309.4 Lux
Mon 13, 02:06 PM17.2 ºC71.7 %956 hPa0 l/m2 0º N 0.8 m/s1.2 m/s5713.1 Lux
Mon 13, 02:16 PM17.5 ºC66.9 %955.9 hPa0 l/m2 22,5º NNE 0.5 m/s1.2 m/s6665.8 Lux
Mon 13, 02:26 PM18.1 ºC67.1 %955.7 hPa0 l/m2 315º NO 0.3 m/s1.2 m/s7230.4 Lux
Mon 13, 02:36 PM18.3 ºC66 %955.5 hPa0 l/m2 0º N 1.1 m/s3 m/s7230.4 Lux
Mon 13, 02:46 PM17 ºC58 %955.3 hPa0 l/m2 0º N 2.8 m/s4.2 m/s7230.4 Lux
Mon 13, 02:56 PM18.5 ºC59.8 %955.4 hPa0 l/m2 0º N 3.8 m/s4.2 m/s7230.4 Lux
Mon 13, 03:06 PM18 ºC56.7 %955.1 hPa0 l/m2 0º N 4.2 m/s4.8 m/s6665.8 Lux
Mon 13, 03:16 PM17.9 ºC57.9 %954.9 hPa0 l/m2 0º N 4.6 m/s5.4 m/s7230.4 Lux
Mon 13, 03:26 PM17.8 ºC59.6 %955 hPa0 l/m2 315º NO 4.6 m/s5.4 m/s7866.8 Lux
Mon 13, 03:36 PM17.5 ºC59.6 %955.1 hPa0 l/m2 0º N 4.7 m/s5.4 m/s7866.8 Lux
Mon 13, 03:46 PM16.6 ºC58 %954.8 hPa0 l/m2 0º N 4.6 m/s6 m/s7230.4 Lux
Mon 13, 03:56 PM17.8 ºC55.8 %954.7 hPa0 l/m2 0º N 4.8 m/s5.4 m/s7230.4 Lux
Mon 13, 04:06 PM18 ºC55.8 %954.6 hPa0 l/m2 0º N 5 m/s5.4 m/s6665.8 Lux
Mon 13, 04:16 PM17.8 ºC54.4 %954.7 hPa0 l/m2 0º N 4.8 m/s5.4 m/s6162.9 Lux
Mon 13, 04:26 PM17.1 ºC54.4 %954.8 hPa0 l/m2 0º N 4.4 m/s4.8 m/s6162.9 Lux
Mon 13, 04:36 PM18 ºC53.3 %954.7 hPa0 l/m2 0º N 4.7 m/s5.4 m/s5713.1 Lux
Mon 13, 04:46 PM16.9 ºC50.7 %954.6 hPa0 l/m2 315º NO 4.7 m/s4.8 m/s5309.4 Lux
Mon 13, 04:56 PM18 ºC49.4 %954.8 hPa0 l/m2 0º N 4.8 m/s4.8 m/s4616.8 Lux
Mon 13, 05:06 PM17.7 ºC49.8 %954.8 hPa0 l/m2 0º N 4.7 m/s5.4 m/s4318.8 Lux
Mon 13, 05:16 PM16.6 ºC49.8 %955.1 hPa0 l/m2 0º N 4.7 m/s4.8 m/s3575 Lux
Mon 13, 05:26 PM16.4 ºC51.2 %955.3 hPa0 l/m2 0º N 5 m/s6 m/s2841.9 Lux
Mon 13, 05:36 PM17.1 ºC52.9 %955.3 hPa0 l/m2 0º N 5.1 m/s5.4 m/s2197.4 Lux
Mon 13, 05:46 PM16.9 ºC52.8 %955.5 hPa0.08 l/m2 0º N 5 m/s5.4 m/s1360.7 Lux
Mon 13, 05:56 PM16.5 ºC55 %955.9 hPa0 l/m2 0º N 4.8 m/s5.4 m/s194.8 Lux
Mon 13, 06:06 PM15.9 ºC57.2 %956.1 hPa0 l/m2 0º N 3.4 m/s3.6 m/s94.4 Lux
Mon 13, 06:16 PM15.6 ºC59.2 %956.2 hPa0 l/m2 0º N 2.8 m/s3 m/s29.8 Lux
Mon 13, 06:26 PM15.3 ºC56.2 %956.4 hPa0 l/m2 0º N 3.1 m/s3.6 m/s7.2 Lux
Mon 13, 06:36 PM15.6 ºC56 %956.5 hPa0 l/m2 0º N 3.4 m/s3.6 m/s2.9 Lux
Mon 13, 06:46 PM14.9 ºC56 %956.7 hPa0 l/m2 0º N 3.3 m/s3.6 m/s2.4 Lux
Mon 13, 06:56 PM14.8 ºC54.1 %956.9 hPa0 l/m2 0º N 3.1 m/s4.8 m/s2.4 Lux
Mon 13, 07:06 PM14.3 ºC55.2 %956.9 hPa0 l/m2 0º N 1.6 m/s2.4 m/s2.4 Lux
Mon 13, 07:16 PM14.3 ºC56.9 %957 hPa0 l/m2 0º N 0.6 m/s1.2 m/s2.4 Lux
Mon 13, 07:26 PM15 ºC57.1 %957 hPa0 l/m2 67,5º ENE 0.7 m/s1.2 m/s2.4 Lux
Mon 13, 07:36 PM14.2 ºC58.1 %957.1 hPa0 l/m2 67,5º ENE 0.3 m/s0 m/s2.4 Lux
Mon 13, 07:46 PM13.9 ºC58 %957.1 hPa0 l/m2 0º N 0 m/s0 m/s2.4 Lux
Mon 13, 07:56 PM13.2 ºC58.5 %957.2 hPa0 l/m2 315º NO 0 m/s0 m/s2.3 Lux
Mon 13, 08:06 PM13.9 ºC61.4 %957.3 hPa0 l/m2 0º N 0 m/s0 m/s2.4 Lux
Mon 13, 08:16 PM14.3 ºC59.6 %957.2 hPa0 l/m2 0º N 0 m/s0 m/s2.4 Lux
Mon 13, 08:26 PM12.5 ºC59.6 %957.4 hPa0 l/m2 315º NO 0.1 m/s0 m/s2.4 Lux
Mon 13, 08:36 PM13.1 ºC62 %957.5 hPa0 l/m2 0º N 0 m/s0 m/s2.4 Lux
Mon 13, 08:46 PM13.1 ºC62.4 %957.5 hPa0 l/m2 0º N 0 m/s0 m/s2.4 Lux
Mon 13, 08:56 PM12.6 ºC64.3 %957.5 hPa0 l/m2 112.5º ESE 0 m/s0 m/s2.4 Lux
Mon 13, 09:06 PM12.8 ºC67.1 %957.5 hPa0 l/m2 225º SO 0 m/s0 m/s2.4 Lux
Mon 13, 09:16 PM12.8 ºC67.8 %957.5 hPa0 l/m2 225º SO 0 m/s0 m/s2.4 Lux
Mon 13, 09:26 PM11.8 ºC67.8 %957.5 hPa0 l/m2 270º O 0 m/s0 m/s2.4 Lux
Mon 13, 09:36 PM11.6 ºC65.5 %957.5 hPa0 l/m2 180º S 0 m/s0 m/s2.3 Lux
Mon 13, 09:46 PM12.8 ºC65.5 %957.5 hPa0 l/m2 0º N 0 m/s0 m/s2.3 Lux
Mon 13, 09:56 PM12.5 ºC67.5 %957.5 hPa0 l/m2 180º S 0 m/s0 m/s2.3 Lux
Mon 13, 10:06 PM11.1 ºC67.3 %957.6 hPa0 l/m2 180º S 0 m/s0 m/s2.3 Lux
Mon 13, 10:16 PM11.8 ºC67.2 %957.7 hPa0 l/m2 247,5º OSO 0 m/s0 m/s2.3 Lux
Mon 13, 10:26 PM11.5 ºC68 %957.8 hPa0 l/m2 0º N 0 m/s0 m/s2.3 Lux
Mon 13, 10:36 PM11.5 ºC68.1 %957.7 hPa0 l/m2 180º S 0 m/s0 m/s2.3 Lux
Mon 13, 10:46 PM12.3 ºC67.7 %957.8 hPa0 l/m2 180º S 0.1 m/s0 m/s2.3 Lux
Mon 13, 10:56 PM12 ºC66.9 %957.9 hPa0 l/m2 0º N 0 m/s0 m/s2.3 Lux
Mon 13, 11:06 PM11.5 ºC67.9 %957.9 hPa0 l/m2 0º N 0 m/s0 m/s2.3 Lux
Mon 13, 11:16 PM12.3 ºC66.6 %957.9 hPa0 l/m2 0º N 0 m/s0 m/s2.3 Lux
Mon 13, 11:26 PM11.8 ºC66.6 %957.8 hPa0 l/m2 0º N 0 m/s0 m/s2.3 Lux
Mon 13, 11:36 PM10.7 ºC68 %957.7 hPa0 l/m2 247,5º OSO 0 m/s0 m/s2.3 Lux
Mon 13, 11:46 PM11.4 ºC69.9 %957.7 hPa0 l/m2 112.5º ESE 0 m/s0 m/s2.3 Lux
Mon 13, 11:56 PM12.2 ºC65 %957.7 hPa0 l/m2 180º S 0.1 m/s0 m/s2.3 Lux
Tue 14, 12:06 AM11.2 ºC66.2 %957.6 hPa0 l/m2 0º N 0.1 m/s0.6 m/s2.3 Lux
Tue 14, 12:16 AM11.6 ºC66.2 %957.6 hPa0 l/m2 180º S 0 m/s0 m/s2.3 Lux
Tue 14, 12:26 AM9.8 ºC69.8 %957.7 hPa0 l/m2 225º SO 0 m/s0 m/s2.3 Lux
Tue 14, 12:36 AM9.8 ºC69.8 %957.8 hPa0 l/m2 202,5º SSO 0 m/s0 m/s2.3 Lux
Tue 14, 12:46 AM9.8 ºC72.3 %957.7 hPa0 l/m2 0º N 0 m/s0 m/s2.3 Lux
Tue 14, 12:56 AM8.6 ºC72.3 %957.6 hPa0 l/m2 225º SO 0 m/s0 m/s2.3 Lux
Tue 14, 01:06 AM8.1 ºC73 %957.6 hPa0 l/m2 22,5º NNE 0 m/s0 m/s2.3 Lux
Tue 14, 01:16 AM8 ºC73.5 %957.6 hPa0 l/m2 315º NO 0 m/s0 m/s2.3 Lux
Tue 14, 01:26 AM7.9 ºC76.3 %957.6 hPa0 l/m2 112.5º ESE 0 m/s0 m/s2.3 Lux
Tue 14, 01:36 AM8.7 ºC73 %957.5 hPa0 l/m2 0º N 0 m/s0 m/s2.3 Lux
Tue 14, 01:46 AM9.1 ºC72.9 %957.5 hPa0 l/m2 180º S 0.7 m/s1.2 m/s2.3 Lux
Tue 14, 01:56 AM8.8 ºC69.8 %957.4 hPa0 l/m2 180º S 0.6 m/s0.6 m/s2.3 Lux
Tue 14, 02:06 AM9 ºC69.4 %957.3 hPa0 l/m2 315º NO 0 m/s0 m/s2.3 Lux
Tue 14, 02:16 AM9 ºC69.4 %957.5 hPa0 l/m2 202,5º SSO 0 m/s0 m/s2.3 Lux
Tue 14, 02:36 AM6.9 ºC74.8 %957.6 hPa0 l/m2 315º NO 0 m/s0 m/s2.3 Lux
Tue 14, 02:46 AM6.5 ºC75.8 %957.5 hPa0 l/m2 247,5º OSO 0 m/s0 m/s2.3 Lux
Tue 14, 02:56 AM6.5 ºC76.4 %957.4 hPa0 l/m2 157,5º SSE 0 m/s0 m/s2.3 Lux
Tue 14, 03:06 AM6.9 ºC76.4 %957.5 hPa0 l/m2 157,5º SSE 0 m/s0 m/s2.3 Lux
Tue 14, 03:16 AM7.9 ºC76.6 %957.4 hPa0 l/m2 247,5º OSO 0 m/s0 m/s2.3 Lux
Tue 14, 03:26 AM7.4 ºC75.9 %957.2 hPa0 l/m2 90º E 0 m/s0 m/s2.3 Lux
Tue 14, 03:36 AM7 ºC75.9 %957.1 hPa0 l/m2 0º N 0 m/s0 m/s2.3 Lux
Tue 14, 03:46 AM7.4 ºC77.2 %957 hPa0 l/m2 157,5º SSE 0 m/s0 m/s2.3 Lux
Tue 14, 03:56 AM7.2 ºC77.2 %957 hPa0 l/m2 180º S 0 m/s0 m/s2.3 Lux
Tue 14, 04:06 AM7 ºC77.2 %956.9 hPa0 l/m2 180º S 0 m/s0 m/s2.3 Lux
Tue 14, 04:16 AM5.7 ºC77 %957 hPa0 l/m2 225º SO 0 m/s0 m/s2.3 Lux
Tue 14, 04:26 AM6.5 ºC78.4 %956.9 hPa0 l/m2 180º S 0 m/s0 m/s2.3 Lux
Tue 14, 04:36 AM6.4 ºC78.4 %956.9 hPa0 l/m2 180º S 0 m/s0 m/s2.3 Lux
Tue 14, 04:46 AM6.1 ºC78.4 %956.9 hPa0 l/m2 315º NO 0 m/s0 m/s2.3 Lux
Tue 14, 04:56 AM7.4 ºC77.4 %956.9 hPa0 l/m2 315º NO 0 m/s0 m/s2.3 Lux
Tue 14, 05:06 AM6.1 ºC77.1 %956.9 hPa0 l/m2 270º O 0 m/s0 m/s2.3 Lux
Tue 14, 05:16 AM5.6 ºC77.2 %956.8 hPa0 l/m2 270º O 0 m/s0 m/s2.3 Lux
Tue 14, 05:26 AM6.9 ºC76.8 %957 hPa0 l/m2 180º S 0 m/s0 m/s2.3 Lux
Tue 14, 05:36 AM6.5 ºC78.6 %957 hPa0 l/m2 0º N 0 m/s0 m/s2.3 Lux
Tue 14, 05:46 AM5.4 ºC75.2 %957.1 hPa0 l/m2 315º NO 0 m/s0 m/s2.3 Lux
Tue 14, 05:56 AM6.4 ºC76.1 %956.9 hPa0 l/m2 315º NO 0 m/s0 m/s2.3 Lux
Tue 14, 06:06 AM5.9 ºC76.3 %956.9 hPa0 l/m2 180º S 0 m/s0 m/s2.3 Lux
Tue 14, 06:16 AM5.5 ºC77.6 %956.9 hPa0 l/m2 0º N 0 m/s0 m/s2.3 Lux
Tue 14, 06:26 AM6.4 ºC76.9 %956.7 hPa0 l/m2 180º S 0 m/s0 m/s2.3 Lux
Tue 14, 06:36 AM5 ºC76.8 %956.6 hPa0 l/m2 0º N 0 m/s0 m/s2.3 Lux
Tue 14, 06:46 AM5.7 ºC75.8 %956.7 hPa0 l/m2 270º O 0 m/s0 m/s2.3 Lux
Tue 14, 06:56 AM5.5 ºC75.7 %956.9 hPa0 l/m2 315º NO 0 m/s0 m/s2.3 Lux
Tue 14, 07:06 AM6.2 ºC80.6 %957 hPa0 l/m2 0º N 0 m/s0 m/s2.3 Lux
Tue 14, 07:16 AM3 ºC80.6 %957 hPa0 l/m2 315º NO 0.1 m/s0.6 m/s2.3 Lux
Tue 14, 07:26 AM2.6 ºC84.7 %957.2 hPa0 l/m2 0º N 0 m/s0 m/s2.5 Lux
Tue 14, 07:36 AM3.4 ºC85.9 %957.1 hPa0 l/m2 180º S 0 m/s0 m/s4.5 Lux
Tue 14, 07:46 AM3.4 ºC85.5 %957.1 hPa0 l/m2 0º N 0 m/s0 m/s16.7 Lux
Tue 14, 07:56 AM3.9 ºC84 %957.3 hPa0 l/m2 0º N 0 m/s0 m/s60.2 Lux
Tue 14, 08:06 AM4.9 ºC81.8 %957.3 hPa0 l/m2 180º S 0 m/s0 m/s139.3 Lux
Tue 14, 08:16 AM5.1 ºC78.9 %957.4 hPa0 l/m2 180º S 0.1 m/s0 m/s262.5 Lux
Tue 14, 08:26 AM5.2 ºC78.4 %956.5 hPa0 l/m2 180º S 0.1 m/s0 m/s1823.7 Lux
Tue 14, 08:36 AM6.6 ºC76.7 %956.6 hPa0 l/m2 0º N 0 m/s0 m/s2554.9 Lux
Tue 14, 08:46 AM7 ºC74.2 %956.5 hPa0 l/m2 180º S 0.2 m/s0.6 m/s3368.1 Lux
Tue 14, 08:56 AM7 ºC73.7 %956.4 hPa0 l/m2 157,5º SSE 0.9 m/s1.2 m/s4047.8 Lux
Tue 14, 09:06 AM7.4 ºC72.3 %956.6 hPa0 l/m2 0º N 0.3 m/s0.6 m/s4318.8 Lux
Tue 14, 09:16 AM8.4 ºC78.5 %956.8 hPa0 l/m2 0º N 0 m/s0 m/s4945.6 Lux
Tue 14, 09:26 AM8.5 ºC78.4 %956.8 hPa0 l/m2 157,5º SSE 0 m/s0 m/s5309.4 Lux
Tue 14, 09:36 AM9.8 ºC75.1 %956.9 hPa0 l/m2 0º N 0 m/s0 m/s5713.1 Lux
Tue 14, 09:46 AM7.5 ºC73.6 %956.6 hPa0 l/m2 0º N 0 m/s0 m/s6162.9 Lux
Tue 14, 09:56 AM8.7 ºC76.4 %956.7 hPa0 l/m2 0º N 0 m/s0 m/s7230.4 Lux
Tue 14, 10:06 AM8.9 ºC76.5 %956.7 hPa0 l/m2 0º N 0 m/s0 m/s7230.4 Lux
Tue 14, 10:16 AM8.4 ºC78.4 %956.8 hPa0 l/m2 0º N 0.1 m/s0 m/s7866.8 Lux
Tue 14, 10:26 AM7 ºC77.5 %957 hPa0 l/m2 315º NO 0.1 m/s0 m/s7866.8 Lux
Tue 14, 10:36 AM7.8 ºC71.6 %957.1 hPa0 l/m2 0º N 0.3 m/s1.2 m/s7866.8 Lux
Tue 14, 10:46 AM7.9 ºC71.7 %957.2 hPa0 l/m2 0º N 0 m/s0 m/s7866.8 Lux
Tue 14, 10:56 AM9.4 ºC72.2 %957.3 hPa0 l/m2 0º N 0 m/s0 m/s6665.8 Lux
Tue 14, 11:06 AM9.4 ºC71.4 %957.4 hPa0 l/m2 0º N 0 m/s0 m/s4318.8 Lux
Tue 14, 11:16 AM9.6 ºC69.4 %957.4 hPa0 l/m2 22,5º NNE 0 m/s0 m/s3178.1 Lux
Tue 14, 11:26 AM10.7 ºC69.5 %957.4 hPa0 l/m2 0º N 0 m/s0 m/s2841.9 Lux
Tue 14, 11:36 AM10.2 ºC66.6 %957.4 hPa0 l/m2 0º N 0.1 m/s0 m/s2692.9 Lux
Tue 14, 11:46 AM10.2 ºC61.8 %957.4 hPa0 l/m2 0º N 0.5 m/s1.2 m/s2554.9 Lux
Tue 14, 11:56 AM9.8 ºC62.5 %957.6 hPa0 l/m2 0º N 0 m/s0 m/s2197.4 Lux
Tue 14, 12:06 PM10.2 ºC61.7 %957.6 hPa0 l/m2 0º N 0.1 m/s0 m/s2197.4 Lux
Tue 14, 12:16 PM10.9 ºC61.6 %957.5 hPa0 l/m2 0º N 0.6 m/s1.8 m/s2197.4 Lux
Tue 14, 12:26 PM11.5 ºC62.2 %957.5 hPa0 l/m2 315º NO 1.1 m/s1.2 m/s2692.9 Lux
Tue 14, 12:36 PM11.5 ºC62 %957.4 hPa0 l/m2 0º N 0.9 m/s1.8 m/s3003.2 Lux
Tue 14, 12:46 PM11.9 ºC58.6 %957.2 hPa0 l/m2 315º NO 0.9 m/s1.2 m/s3368.1 Lux
Tue 14, 12:56 PM11.8 ºC57.4 %957.2 hPa0 l/m2 0º N 0.6 m/s1.2 m/s3575 Lux
Tue 14, 01:06 PM12.8 ºC56.5 %957 hPa0 l/m2 315º NO 0.9 m/s1.2 m/s3800.8 Lux
Tue 14, 01:16 PM12.3 ºC55.1 %956.9 hPa0 l/m2 315º NO 0.6 m/s1.2 m/s4047.8 Lux
Tue 14, 01:26 PM13.8 ºC55 %956.8 hPa0 l/m2 315º NO 0.6 m/s1.2 m/s4318.8 Lux
Tue 14, 01:36 PM13.9 ºC56.6 %956.6 hPa0 l/m2 315º NO 0.1 m/s0.6 m/s4945.6 Lux
Tue 14, 01:46 PM13.6 ºC56.7 %956.5 hPa0 l/m2 67,5º ENE 0.3 m/s0.6 m/s5309.4 Lux
Tue 14, 01:56 PM14.4 ºC56.5 %956.4 hPa0 l/m2 270º O 0.4 m/s1.2 m/s5713.1 Lux
Tue 14, 02:06 PM14.3 ºC57 %956.3 hPa0 l/m2 270º O 0.5 m/s1.8 m/s6162.9 Lux
Tue 14, 02:16 PM15.2 ºC61.3 %956.1 hPa0 l/m2 270º O 0.3 m/s1.2 m/s6665.8 Lux
Tue 14, 02:26 PM15.1 ºC57.1 %956 hPa0 l/m2 0º N 0.1 m/s0.6 m/s7230.4 Lux
Tue 14, 02:36 PM16.1 ºC58.7 %955.8 hPa0 l/m2 0º N 0.3 m/s0.6 m/s7230.4 Lux
Tue 14, 02:46 PM14.9 ºC57.7 %955.7 hPa0 l/m2 0º N 0.5 m/s1.2 m/s6665.8 Lux
Tue 14, 02:56 PM15 ºC57.7 %955.5 hPa0 l/m2 0º N 0.4 m/s1.2 m/s7230.4 Lux
Tue 14, 03:06 PM15.7 ºC58 %955.5 hPa0 l/m2 315º NO 1.1 m/s1.2 m/s7230.4 Lux
Tue 14, 03:16 PM16.6 ºC58 %955.5 hPa0 l/m2 67,5º ENE 0.5 m/s1.2 m/s7866.8 Lux
Tue 14, 03:26 PM15 ºC57.6 %955.4 hPa0 l/m2 0º N 1.5 m/s2.4 m/s7866.8 Lux
Tue 14, 03:36 PM16 ºC58.6 %955.4 hPa0 l/m2 315º NO 1.2 m/s2.4 m/s7230.4 Lux
Tue 14, 03:46 PM16.5 ºC58.6 %955.3 hPa0 l/m2 0º N 0.6 m/s1.2 m/s6665.8 Lux
Tue 14, 03:56 PM15.9 ºC59.1 %955.5 hPa0 l/m2 0º N 0.1 m/s0 m/s6665.8 Lux
Tue 14, 04:06 PM15.6 ºC59.6 %955.6 hPa0 l/m2 315º NO 1 m/s1.8 m/s6162.9 Lux
Tue 14, 04:16 PM15.7 ºC60 %955.6 hPa0 l/m2 315º NO 0.6 m/s1.2 m/s6162.9 Lux
Tue 14, 04:26 PM16.6 ºC60.2 %955.6 hPa0 l/m2 315º NO 1 m/s1.2 m/s5713.1 Lux
Tue 14, 04:36 PM16.6 ºC61.5 %955.7 hPa0 l/m2 0º N 0.5 m/s1.2 m/s5309.4 Lux
Tue 14, 04:46 PM16.5 ºC61.6 %955.7 hPa0 l/m2 0º N 0.7 m/s1.2 m/s4616.8 Lux
Tue 14, 04:56 PM16.8 ºC63.3 %955.9 hPa0 l/m2 0º N 0.4 m/s1.2 m/s4318.8 Lux
Tue 14, 05:06 PM15 ºC63.3 %955.9 hPa0 l/m2 0º N 1 m/s1.2 m/s3800.8 Lux
Tue 14, 05:16 PM16 ºC64.4 %956 hPa0 l/m2 0º N 1.1 m/s1.2 m/s3178.1 Lux
Tue 14, 05:26 PM15.5 ºC64.2 %956.1 hPa0 l/m2 0º N 1.6 m/s2.4 m/s2426.9 Lux
Tue 14, 05:36 PM15.3 ºC65.4 %956.2 hPa0 l/m2 315º NO 1.2 m/s1.8 m/s1823.7 Lux
Tue 14, 05:46 PM14 ºC63.9 %956.4 hPa0 l/m2 0º N 0.5 m/s1.2 m/s1087.9 Lux
Tue 14, 05:56 PM14.6 ºC62.9 %956.6 hPa0 l/m2 67,5º ENE 0 m/s0 m/s204.7 Lux
Tue 14, 06:06 PM14.1 ºC61.7 %956.7 hPa0 l/m2 0º N 0.2 m/s0.6 m/s82.2 Lux
Tue 14, 06:16 PM13.6 ºC60.4 %956.8 hPa0 l/m2 0º N 0.7 m/s1.2 m/s25.3 Lux
Tue 14, 06:26 PM13.1 ºC62 %957 hPa0 l/m2 0º N 0.3 m/s0.6 m/s6.3 Lux
Tue 14, 06:36 PM12.3 ºC60.7 %957.1 hPa0 l/m2 0º N 0.8 m/s0.6 m/s2.8 Lux
Tue 14, 06:46 PM12.6 ºC60.6 %957.3 hPa0 l/m2 202,5º SSO 0 m/s0 m/s2.4 Lux
Tue 14, 06:56 PM11.9 ºC64.1 %957.3 hPa0 l/m2 0º N 0 m/s0 m/s2.4 Lux
Tue 14, 07:06 PM12.8 ºC66.4 %957.5 hPa0 l/m2 202,5º SSO 0 m/s0 m/s2.4 Lux
Tue 14, 07:16 PM11.4 ºC64.5 %957.4 hPa0 l/m2 202,5º SSO 0 m/s0 m/s2.4 Lux
Tue 14, 07:26 PM12.4 ºC58.5 %957.5 hPa0 l/m2 0º N 0 m/s0 m/s2.4 Lux
Tue 14, 07:36 PM11.5 ºC62.7 %957.5 hPa0 l/m2 0º N 0 m/s0 m/s2.4 Lux
Tue 14, 07:46 PM10.6 ºC64.9 %957.6 hPa0 l/m2 180º S 0 m/s0 m/s2.4 Lux
Tue 14, 07:56 PM11.6 ºC68 %957.6 hPa0 l/m2 180º S 0 m/s0 m/s2.4 Lux
Tue 14, 08:06 PM10.7 ºC77 %957.7 hPa0 l/m2 112.5º ESE 0.1 m/s0 m/s2.4 Lux
Tue 14, 08:16 PM11.8 ºC80.6 %957.9 hPa0 l/m2 180º S 0.1 m/s0.6 m/s2.4 Lux
Tue 14, 08:26 PM11.5 ºC82.6 %957.9 hPa0 l/m2 0º N 0 m/s0 m/s2.4 Lux
Tue 14, 08:36 PM10 ºC81.8 %957.8 hPa0 l/m2 180º S 0 m/s0 m/s2.4 Lux
Tue 14, 08:46 PM11.3 ºC83.5 %957.9 hPa0 l/m2 180º S 0.1 m/s0 m/s2.4 Lux
Tue 14, 08:56 PM11.3 ºC85.7 %958 hPa0 l/m2 247,5º OSO 0 m/s0 m/s2.4 Lux
Tue 14, 09:06 PM10 ºC87.8 %958 hPa0 l/m2 247,5º OSO 0 m/s0 m/s2.4 Lux
Tue 14, 09:16 PM10.6 ºC87.8 %957.9 hPa0 l/m2 0º N 0 m/s0 m/s2.4 Lux
Tue 14, 09:26 PM10.7 ºC87.9 %958 hPa0 l/m2 180º S 0 m/s0 m/s2.4 Lux
Tue 14, 09:36 PM10.3 ºC89.1 %958.1 hPa0 l/m2 315º NO 0 m/s0 m/s2.4 Lux
Tue 14, 09:46 PM10.3 ºC89.5 %958.1 hPa0 l/m2 22,5º NNE 0.3 m/s0.6 m/s2.4 Lux
Tue 14, 09:56 PM10.5 ºC89.5 %958.1 hPa0 l/m2 0º N 0 m/s0 m/s2.4 Lux
Tue 14, 10:06 PM10.3 ºC88 %958.1 hPa0 l/m2 247,5º OSO 0 m/s0 m/s2.4 Lux
Tue 14, 10:16 PM9.5 ºC89.3 %958.2 hPa0 l/m2 202,5º SSO 0 m/s0 m/s2.3 Lux
Tue 14, 10:26 PM9.7 ºC88.9 %958.2 hPa0 l/m2 0º N 0 m/s0 m/s2.3 Lux
Tue 14, 10:36 PM10.4 ºC87.3 %958.3 hPa0 l/m2 315º NO 0 m/s0 m/s2.3 Lux
Tue 14, 10:46 PM10.9 ºC87.3 %958.4 hPa0 l/m2 225º SO 0 m/s0 m/s2.3 Lux
Tue 14, 10:56 PM10.8 ºC88.6 %958.4 hPa0 l/m2 0º N 0 m/s0 m/s2.3 Lux
Tue 14, 11:06 PM10.5 ºC88.6 %958.5 hPa0 l/m2 292,5º ONO 0 m/s0 m/s2.3 Lux
Tue 14, 11:16 PM10.7 ºC88.6 %958.5 hPa0 l/m2 247,5º OSO 0.1 m/s0.6 m/s2.3 Lux
Tue 14, 11:26 PM10.3 ºC87.5 %958.4 hPa0 l/m2 22,5º NNE 0 m/s0 m/s2.3 Lux
Tue 14, 11:36 PM9.3 ºC87.5 %958.5 hPa0 l/m2 0º N 0 m/s0 m/s2.3 Lux
Tue 14, 11:46 PM9.7 ºC87.8 %958.4 hPa0 l/m2 0º N 0 m/s0 m/s2.3 Lux
Tue 14, 11:56 PM10.5 ºC86.8 %958.5 hPa0 l/m2 315º NO 0 m/s0 m/s2.3 Lux
Wed 15, 12:06 AM10 ºC88.3 %958.5 hPa0 l/m2 0º N 0 m/s0 m/s2.3 Lux
Wed 15, 12:16 AM9.9 ºC88.3 %958.6 hPa0 l/m2 112.5º ESE 0 m/s0 m/s2.3 Lux
Wed 15, 12:26 AM9.3 ºC84.1 %958.6 hPa0 l/m2 0º N 0 m/s0 m/s2.3 Lux
Wed 15, 12:36 AM9.9 ºC84.1 %958.6 hPa0 l/m2 180º S 0 m/s0 m/s2.3 Lux
Wed 15, 12:46 AM10.6 ºC85.4 %958.5 hPa0 l/m2 180º S 1.1 m/s1.8 m/s2.3 Lux
Wed 15, 12:56 AM10 ºC87.9 %958.6 hPa0 l/m2 0º N 0.2 m/s0.6 m/s2.3 Lux
Wed 15, 01:06 AM11.1 ºC76.9 %958.6 hPa0 l/m2 180º S 0.6 m/s1.2 m/s2.3 Lux
Wed 15, 01:16 AM11.3 ºC76.8 %958.6 hPa0 l/m2 67,5º ENE 1.6 m/s2.4 m/s2.3 Lux
Wed 15, 01:26 AM10 ºC88 %958.5 hPa0 l/m2 0º N 0.3 m/s1.2 m/s2.3 Lux
Wed 15, 01:36 AM11.1 ºC89.7 %958.5 hPa0 l/m2 0º N 0 m/s0 m/s2.3 Lux
Wed 15, 01:46 AM11 ºC90.8 %958.4 hPa0 l/m2 0º N 0 m/s0 m/s2.3 Lux
Wed 15, 01:56 AM9.7 ºC90.9 %958.3 hPa0 l/m2 0º N 0.1 m/s0 m/s2.3 Lux
Wed 15, 02:06 AM9.6 ºC91.3 %958.4 hPa0 l/m2 0º N 0 m/s0 m/s2.3 Lux
Wed 15, 02:16 AM10 ºC89.8 %958.4 hPa0 l/m2 0º N 0 m/s0 m/s2.3 Lux
Wed 15, 02:26 AM9 ºC91.8 %958.4 hPa0 l/m2 180º S 0 m/s0 m/s2.3 Lux
Wed 15, 02:36 AM9.7 ºC93.4 %958.4 hPa0 l/m2 0º N 0 m/s0 m/s2.3 Lux
Wed 15, 02:46 AM8.6 ºC92.4 %958.4 hPa0 l/m2 0º N 0.1 m/s0.6 m/s2.3 Lux
Wed 15, 02:56 AM9.5 ºC92.4 %958.5 hPa0 l/m2 270º O 0 m/s0 m/s2.3 Lux
Wed 15, 03:06 AM10.3 ºC92.3 %958.5 hPa0 l/m2 270º O 0 m/s0 m/s2.3 Lux
Wed 15, 03:16 AM9.7 ºC93.2 %958.6 hPa0 l/m2 112.5º ESE 0.1 m/s0.6 m/s2.3 Lux
Wed 15, 03:26 AM9.1 ºC90 %958.6 hPa0 l/m2 0º N 0.2 m/s0 m/s2.3 Lux
Wed 15, 03:36 AM9.8 ºC91.1 %958.5 hPa0 l/m2 0º N 0 m/s0 m/s2.3 Lux
Wed 15, 03:46 AM9.7 ºC93.8 %958.6 hPa0 l/m2 247,5º OSO 0 m/s0 m/s2.3 Lux
Wed 15, 03:56 AM8.8 ºC93 %958.5 hPa0 l/m2 315º NO 0.1 m/s0 m/s2.3 Lux
Wed 15, 04:06 AM8.5 ºC93.9 %958.5 hPa0 l/m2 0º N 0 m/s0 m/s2.3 Lux
Wed 15, 04:16 AM8.9 ºC93.9 %958.4 hPa0 l/m2 0º N 0 m/s0 m/s2.3 Lux
Wed 15, 04:26 AM8.6 ºC94.2 %958.3 hPa0 l/m2 270º O 0 m/s0 m/s2.3 Lux
Wed 15, 04:36 AM9.9 ºC94.2 %958.3 hPa0 l/m2 0º N 0.2 m/s1.2 m/s2.3 Lux
Wed 15, 04:46 AM10 ºC93.5 %958.3 hPa0 l/m2 0º N 0.2 m/s0.6 m/s2.3 Lux
Wed 15, 04:56 AM9 ºC93.5 %958.4 hPa0 l/m2 315º NO 0 m/s0 m/s2.3 Lux
Wed 15, 05:06 AM8.3 ºC93.1 %958.4 hPa0 l/m2 180º S 0 m/s0 m/s2.3 Lux
Wed 15, 05:16 AM9.2 ºC91.3 %958.2 hPa0 l/m2 270º O 0 m/s0 m/s2.3 Lux
Wed 15, 05:26 AM9.2 ºC91.8 %958.2 hPa0 l/m2 315º NO 0 m/s0 m/s2.3 Lux
Wed 15, 05:36 AM10.3 ºC90.4 %958.3 hPa0 l/m2 0º N 0.1 m/s0 m/s2.3 Lux
Wed 15, 05:46 AM9.2 ºC90.4 %958.4 hPa0 l/m2 90º E 0 m/s0 m/s2.3 Lux
Wed 15, 05:56 AM9.1 ºC89.5 %958.3 hPa0 l/m2 247,5º OSO 0 m/s0 m/s2.3 Lux
Wed 15, 06:06 AM9.9 ºC89.5 %958.6 hPa0 l/m2 270º O 0 m/s0 m/s2.3 Lux
Wed 15, 06:16 AM9.9 ºC85.7 %958.5 hPa0 l/m2 0º N 0 m/s0 m/s2.3 Lux
Wed 15, 06:26 AM8.6 ºC85.7 %958.5 hPa0 l/m2 247,5º OSO 0 m/s0 m/s2.3 Lux
Wed 15, 06:36 AM9.9 ºC88 %958.5 hPa0 l/m2 315º NO 0 m/s0 m/s2.3 Lux
Wed 15, 06:46 AM9.5 ºC88 %958.5 hPa0 l/m2 0º N 0 m/s0 m/s2.3 Lux
Wed 15, 06:56 AM9.1 ºC88 %958.4 hPa0 l/m2 0º N 0 m/s0 m/s2.3 Lux
Wed 15, 07:06 AM9.5 ºC88.6 %958.6 hPa0 l/m2 315º NO 0 m/s0 m/s2.3 Lux
Wed 15, 07:16 AM7.8 ºC90.6 %958.6 hPa0 l/m2 180º S 0 m/s0 m/s2.3 Lux
Wed 15, 07:26 AM9.4 ºC87.8 %958.6 hPa0 l/m2 0º N 0 m/s0 m/s2.5 Lux
Wed 15, 07:36 AM9.7 ºC90.4 %958.8 hPa0 l/m2 0º N 0 m/s0 m/s4 Lux
Wed 15, 07:46 AM9.4 ºC90.3 %958.9 hPa0 l/m2 0º N 0 m/s0 m/s14.8 Lux
Wed 15, 07:56 AM8.4 ºC89 %959.2 hPa0 l/m2 0º N 0.3 m/s1.2 m/s55.7 Lux
Wed 15, 08:06 AM7.5 ºC92.4 %959.3 hPa0 l/m2 0º N 0 m/s0 m/s139.3 Lux
Wed 15, 08:16 AM8.2 ºC90.5 %959.4 hPa0 l/m2 315º NO 0 m/s0 m/s272.7 Lux
Wed 15, 08:26 AM8.2 ºC90.4 %958.7 hPa0 l/m2 0º N 0 m/s0 m/s1670.6 Lux
Wed 15, 08:36 AM8.8 ºC92 %958.5 hPa0 l/m2 315º NO 0 m/s0 m/s2426.9 Lux
Wed 15, 08:46 AM9.2 ºC82 %958.5 hPa0 l/m2 225º SO 0 m/s0 m/s3178.1 Lux
Wed 15, 08:56 AM11.3 ºC88.5 %958.6 hPa0 l/m2 0º N 0 m/s0 m/s3800.8 Lux
Wed 15, 09:06 AM10.4 ºC89.1 %958.4 hPa0 l/m2 0º N 0 m/s0 m/s4047.8 Lux
Wed 15, 09:16 AM11.3 ºC86 %958.6 hPa0 l/m2 0º N 0 m/s0 m/s4945.6 Lux
Wed 15, 09:26 AM13.1 ºC86 %958.5 hPa0 l/m2 0º N 0 m/s0 m/s5309.4 Lux
Wed 15, 09:36 AM13.9 ºC84.8 %958.5 hPa0 l/m2 0º N 0.2 m/s0.6 m/s6162.9 Lux
Wed 15, 09:46 AM10.3 ºC84.8 %958.4 hPa0 l/m2 0º N 0.2 m/s1.2 m/s6665.8 Lux
Wed 15, 09:56 AM10 ºC86.1 %958.6 hPa0 l/m2 315º NO 0 m/s0 m/s7230.4 Lux
Wed 15, 10:06 AM10.3 ºC86.1 %958.7 hPa0 l/m2 0º N 0 m/s0 m/s7866.8 Lux
Wed 15, 10:16 AM12.3 ºC85.9 %959 hPa0 l/m2 0º N 0 m/s0 m/s7866.8 Lux
Wed 15, 10:26 AM11.8 ºC83.8 %959 hPa0 l/m2 0º N 0 m/s0 m/s7866.8 Lux
Wed 15, 10:36 AM11.7 ºC82 %959.1 hPa0 l/m2 315º NO 0.1 m/s0 m/s7866.8 Lux
Wed 15, 10:46 AM12.8 ºC77.3 %959.1 hPa0 l/m2 0º N 0 m/s0 m/s7230.4 Lux
Wed 15, 10:56 AM13.8 ºC78.5 %959.2 hPa0 l/m2 112.5º ESE 0.1 m/s0.6 m/s6665.8 Lux
Wed 15, 11:16 AM15.3 ºC73.2 %959.5 hPa0 l/m2 225º SO 0.4 m/s1.2 m/s3003.2 Lux
Wed 15, 11:26 AM14.9 ºC73.2 %959.6 hPa0 l/m2 270º O 0.1 m/s0 m/s3003.2 Lux
Wed 15, 11:36 AM14.7 ºC65.3 %959.5 hPa0 l/m2 0º N 0.2 m/s0.6 m/s2554.9 Lux
Wed 15, 11:46 AM15.3 ºC65.4 %959.6 hPa0 l/m2 0º N 0.3 m/s1.2 m/s2426.9 Lux
Wed 15, 11:56 AM16 ºC66 %959.6 hPa0 l/m2 180º S 0.7 m/s1.8 m/s2197.4 Lux
Wed 15, 12:06 PM15.9 ºC71.9 %959.5 hPa0 l/m2 270º O 0.7 m/s1.2 m/s2197.4 Lux
Wed 15, 12:16 PM15.9 ºC72 %959.4 hPa0 l/m2 180º S 0.5 m/s0.6 m/s2197.4 Lux
Wed 15, 12:26 PM15.9 ºC63.2 %959.2 hPa0 l/m2 225º SO 0.3 m/s1.2 m/s2692.9 Lux
Wed 15, 12:36 PM15.1 ºC63.2 %959.1 hPa0 l/m2 180º S 0.5 m/s1.2 m/s3003.2 Lux
Wed 15, 12:46 PM15.6 ºC62.1 %958.8 hPa0 l/m2 225º SO 0.5 m/s1.2 m/s3575 Lux
Wed 15, 12:56 PM16.9 ºC65.5 %958.8 hPa0 l/m2 247,5º OSO 0.5 m/s1.2 m/s3800.8 Lux
Wed 15, 01:06 PM17.3 ºC65.2 %958.6 hPa0 l/m2 67,5º ENE 0.4 m/s1.2 m/s3800.8 Lux
Wed 15, 01:16 PM15.6 ºC68 %958.5 hPa0 l/m2 247,5º OSO 0.5 m/s1.2 m/s4047.8 Lux
Wed 15, 01:26 PM17.3 ºC67.8 %958.5 hPa0 l/m2 0º N 0 m/s0 m/s4616.8 Lux
Wed 15, 01:36 PM18.4 ºC66.8 %958.3 hPa0 l/m2 225º SO 0.2 m/s0.6 m/s4945.6 Lux
Wed 15, 01:46 PM18.3 ºC68.1 %958.1 hPa0 l/m2 225º SO 0.2 m/s1.2 m/s5713.1 Lux
Wed 15, 01:56 PM18.1 ºC62.9 %958.1 hPa0 l/m2 270º O 0.2 m/s0.6 m/s6162.9 Lux
Wed 15, 02:06 PM17.9 ºC62.8 %957.9 hPa0 l/m2 0º N 0.1 m/s0 m/s6665.8 Lux
Wed 15, 02:16 PM18 ºC64.2 %957.8 hPa0 l/m2 0º N 0.1 m/s0 m/s7230.4 Lux
Wed 15, 02:26 PM18.4 ºC63 %957.6 hPa0 l/m2 225º SO 0.2 m/s0.6 m/s7230.4 Lux
Wed 15, 02:36 PM19 ºC62.3 %957.5 hPa0 l/m2 225º SO 0.4 m/s1.2 m/s7230.4 Lux
Wed 15, 02:46 PM19.8 ºC62.5 %957.5 hPa0 l/m2 270º O 0.3 m/s1.2 m/s7230.4 Lux
Wed 15, 03:07 PM18.5 ºC64.7 %957.4 hPa0 l/m2 225º SO 0.2 m/s1.2 m/s7866.8 Lux
Wed 15, 03:17 PM19.4 ºC67.3 %957.4 hPa0 l/m2 247,5º OSO 0.2 m/s0.6 m/s7866.8 Lux
Wed 15, 03:27 PM18.8 ºC66.1 %957.4 hPa0 l/m2 0º N 0 m/s0 m/s7866.8 Lux
Wed 15, 03:37 PM19.8 ºC63.6 %957.4 hPa0 l/m2 247,5º OSO 0.1 m/s1.2 m/s7866.8 Lux
Wed 15, 03:47 PM18 ºC69.2 %957.4 hPa0 l/m2 202,5º SSO 0.3 m/s0.6 m/s7866.8 Lux
Wed 15, 03:57 PM19 ºC63.9 %957.3 hPa0 l/m2 180º S 0.4 m/s0.6 m/s7230.4 Lux
Wed 15, 04:07 PM18.4 ºC64.3 %957.3 hPa0 l/m2 225º SO 0.1 m/s0.6 m/s6665.8 Lux
Wed 15, 04:17 PM19.1 ºC61.9 %957.3 hPa0 l/m2 0º N 0.1 m/s0.6 m/s6162.9 Lux
Wed 15, 04:27 PM20 ºC61.9 %957.3 hPa0 l/m2 180º S 0 m/s0 m/s5713.1 Lux
Wed 15, 04:37 PM19 ºC63.9 %957.4 hPa0 l/m2 0º N 0.2 m/s0.6 m/s5713.1 Lux
Wed 15, 04:47 PM19.4 ºC64.8 %957.4 hPa0 l/m2 225º SO 0.9 m/s1.8 m/s4945.6 Lux
Wed 15, 04:57 PM18.3 ºC66 %957.4 hPa0 l/m2 180º S 0.3 m/s0.6 m/s4616.8 Lux
Wed 15, 05:07 PM17.7 ºC69 %957.5 hPa0 l/m2 180º S 0.4 m/s1.2 m/s3800.8 Lux
Wed 15, 05:17 PM18 ºC68.5 %957.5 hPa0 l/m2 180º S 0.8 m/s1.2 m/s3368.1 Lux
Wed 15, 05:27 PM17.6 ºC69.8 %957.6 hPa0 l/m2 247,5º OSO 0.6 m/s0.6 m/s2554.9 Lux
Wed 15, 05:37 PM17.5 ºC69.8 %957.7 hPa0 l/m2 247,5º OSO 0.1 m/s0 m/s2094.2 Lux
Wed 15, 05:47 PM16.7 ºC70.6 %957.7 hPa0 l/m2 157,5º SSE 0 m/s0 m/s1308.8 Lux
Wed 15, 05:57 PM16.7 ºC72.2 %958 hPa0 l/m2 180º S 0 m/s0 m/s166.2 Lux
Wed 15, 06:07 PM14.1 ºC71.2 %958.1 hPa0 l/m2 202,5º SSO 0.2 m/s1.2 m/s52.7 Lux
Wed 15, 06:17 PM15.1 ºC72.3 %958 hPa0 l/m2 112.5º ESE 0.1 m/s0 m/s12.1 Lux
Wed 15, 06:27 PM14.7 ºC73 %958.1 hPa0 l/m2 0º N 0.1 m/s0 m/s3.6 Lux
Wed 15, 06:37 PM14.4 ºC73.4 %958.2 hPa0 l/m2 180º S 0.5 m/s0.6 m/s2.5 Lux
Wed 15, 06:47 PM13.8 ºC73.3 %958.3 hPa0 l/m2 157,5º SSE 0.4 m/s1.2 m/s2.4 Lux
Wed 15, 06:57 PM12.8 ºC73.7 %958.2 hPa0 l/m2 247,5º OSO 0.7 m/s1.2 m/s2.4 Lux
Wed 15, 07:07 PM13.6 ºC70.1 %958.4 hPa0 l/m2 180º S 0.7 m/s0.6 m/s2.4 Lux
Wed 15, 07:17 PM13.5 ºC71.4 %958.3 hPa0 l/m2 180º S 0.4 m/s0.6 m/s2.4 Lux
Wed 15, 07:27 PM13.2 ºC73.1 %958.4 hPa0 l/m2 180º S 0.9 m/s1.2 m/s2.4 Lux
Wed 15, 07:37 PM13.1 ºC73.2 %958.3 hPa0 l/m2 180º S 0.1 m/s0.6 m/s2.3 Lux
Wed 15, 07:47 PM12.2 ºC74.2 %958.5 hPa0 l/m2 180º S 0.4 m/s0.6 m/s2.3 Lux
Wed 15, 07:57 PM12.8 ºC77.4 %958.4 hPa0 l/m2 180º S 0.1 m/s0 m/s2.4 Lux
Wed 15, 08:07 PM12.7 ºC78.5 %958.5 hPa0 l/m2 157,5º SSE 0.1 m/s0 m/s2.4 Lux
Wed 15, 08:17 PM12.3 ºC80.2 %958.5 hPa0 l/m2 180º S 0.1 m/s0 m/s2.4 Lux
Wed 15, 08:27 PM11.7 ºC80.9 %958.5 hPa0 l/m2 112.5º ESE 0.6 m/s0.6 m/s2.4 Lux
Wed 15, 08:37 PM12.3 ºC80.8 %958.5 hPa0 l/m2 0º N 0.1 m/s0 m/s2.4 Lux
Wed 15, 08:47 PM12.2 ºC80.8 %958.6 hPa0 l/m2 180º S 0.4 m/s0.6 m/s2.4 Lux
Wed 15, 08:57 PM11.4 ºC79.4 %958.6 hPa0 l/m2 180º S 0.2 m/s0.6 m/s2.4 Lux
Wed 15, 09:07 PM11.9 ºC82 %958.5 hPa0 l/m2 180º S 0 m/s0 m/s2.4 Lux
Wed 15, 09:17 PM11.7 ºC82.5 %958.7 hPa0 l/m2 180º S 0.1 m/s0 m/s2.3 Lux
Wed 15, 09:27 PM10.7 ºC81.8 %958.8 hPa0 l/m2 180º S 0.8 m/s1.2 m/s2.3 Lux
Wed 15, 09:37 PM11.3 ºC82.3 %958.9 hPa0 l/m2 157,5º SSE 1 m/s1.2 m/s2.3 Lux
Wed 15, 09:47 PM10.3 ºC82.3 %958.9 hPa0 l/m2 157,5º SSE 0.8 m/s1.2 m/s2.3 Lux
Wed 15, 09:57 PM10.3 ºC80.2 %958.9 hPa0 l/m2 180º S 1 m/s1.2 m/s2.3 Lux
Wed 15, 10:07 PM11 ºC78.6 %958.9 hPa0 l/m2 180º S 1.4 m/s1.2 m/s2.3 Lux
Wed 15, 10:17 PM10.9 ºC80.9 %958.8 hPa0 l/m2 112.5º ESE 1 m/s1.2 m/s2.3 Lux
Wed 15, 10:27 PM9.9 ºC80.3 %958.8 hPa0 l/m2 180º S 1 m/s1.2 m/s2.3 Lux
Wed 15, 10:37 PM10.8 ºC80.2 %958.8 hPa0 l/m2 180º S 0.6 m/s0.6 m/s2.3 Lux
Wed 15, 10:47 PM10.2 ºC83.5 %958.8 hPa0 l/m2 180º S 0.1 m/s0.6 m/s2.3 Lux
Wed 15, 10:57 PM10.4 ºC84.9 %958.8 hPa0 l/m2 180º S 0.2 m/s0 m/s2.3 Lux
Wed 15, 11:07 PM10.2 ºC84.9 %958.8 hPa0 l/m2 202,5º SSO 0 m/s0 m/s2.3 Lux
Wed 15, 11:17 PM10.1 ºC84 %958.9 hPa0 l/m2 247,5º OSO 0 m/s0 m/s2.3 Lux
Wed 15, 11:27 PM10.3 ºC84.1 %958.8 hPa0 l/m2 247,5º OSO 0 m/s0 m/s2.3 Lux
Wed 15, 11:37 PM10.1 ºC86.7 %958.9 hPa0 l/m2 0º N 0 m/s0 m/s2.3 Lux
Wed 15, 11:47 PM9.5 ºC87.4 %958.9 hPa0 l/m2 225º SO 0 m/s0 m/s2.3 Lux
Wed 15, 11:57 PM9.3 ºC88.5 %958.8 hPa0 l/m2 180º S 0 m/s0 m/s2.3 Lux
WeatherStation © 2017